THY91 RKSI-LTFM
Flight info
| Callsign | THY91 |
|---|---|
| Flight time | 9h 56m |
| Altitude | 32000 |
| Route | NOPIK2Y NOPIK Y697 AGAVO/K0820S0660 A591 IKEKA W4 FZ/K0913S0980 W4 HCH W200 DOVIV W55 PAMRU W34 VYK B215 LEBOM W104 VEXEB W47 IDSOT/K0902S1040 W48 DKO W66 NUKTI B215 FKG A368 SARIN/K0904F340 N161 UNABO/K0895F360 N161 GASBI/N0488F360 N161 LEYLA N644 ADEKI DCT BADIR DCT LAGAS DCT NOLGA/N0485F380 UG261 TBN UM11 CRM UM688 EKSUK UL852 TIVUG UM10 HAKAN UN644 GUMRU UT315 NUGBA |
| Aircraft | B77W/H-SDE1E2E3FGHIJ2J3J4J5M1RWXY/LB1D1 |
Departure
| Time | 2026-05-03 20:55 |
|---|---|
| Airport | Incheon International Airport (RKSI) |
Arrival
| Time | 2026-05-04 06:51 |
|---|---|
| Airport | İstanbul Airport (LTFM) |
| Time | Latitude | Longitude | Altitude | Speed | Heading |
|---|---|---|---|---|---|
| 2026-05-03 20:41 | 37.44940 | 126.44570 | 37 ft | 0 kts | 36° |
| 2026-05-03 20:46 | 37.44940 | 126.44569 | 37 ft | 0 kts | 36° |
| 2026-05-03 20:46 | 37.44929 | 126.44560 | 36 ft | 2 kts | 37° |
| 2026-05-03 20:46 | 37.44916 | 126.44547 | 35 ft | 2 kts | 39° |
| 2026-05-03 20:46 | 37.44904 | 126.44533 | 34 ft | 2 kts | 43° |
| 2026-05-03 20:47 | 37.44892 | 126.44518 | 35 ft | 2 kts | 51° |
| 2026-05-03 20:47 | 37.44883 | 126.44501 | 35 ft | 2 kts | 71° |
| 2026-05-03 20:47 | 37.44882 | 126.44481 | 35 ft | 2 kts | 118° |
| 2026-05-03 20:47 | 37.44885 | 126.44475 | 33 ft | 0 kts | 125° |
| 2026-05-03 20:52 | 37.44879 | 126.44485 | 33 ft | 6 kts | 125° |
| 2026-05-03 20:52 | 37.44829 | 126.44575 | 37 ft | 19 kts | 125° |
| 2026-05-03 20:52 | 37.44744 | 126.44608 | 37 ft | 13 kts | 192° |
| 2026-05-03 20:53 | 37.44639 | 126.44581 | 37 ft | 16 kts | 186° |
| 2026-05-03 20:53 | 37.44545 | 126.44519 | 37 ft | 16 kts | 235° |
| 2026-05-03 20:53 | 37.44481 | 126.44402 | 37 ft | 16 kts | 235° |
| 2026-05-03 20:53 | 37.44416 | 126.44286 | 36 ft | 16 kts | 235° |
| 2026-05-03 20:54 | 37.44362 | 126.44183 | 35 ft | 10 kts | 250° |
| 2026-05-03 20:54 | 37.44505 | 126.44019 | 37 ft | 46 kts | 325° |
| 2026-05-03 20:54 | 37.44947 | 126.43623 | 36 ft | 109 kts | 324° |
| 2026-05-03 20:55 | 37.45711 | 126.42949 | 39 ft | 160 kts | 324° |
| 2026-05-03 20:55 | 37.46726 | 126.42049 | 96 ft | 190 kts | 324° |
| 2026-05-03 20:55 | 37.47781 | 126.41100 | 629 ft | 182 kts | 316° |
| 2026-05-03 20:55 | 37.48564 | 126.39922 | 1287 ft | 172 kts | 304° |
| 2026-05-03 20:56 | 37.49210 | 126.38690 | 1892 ft | 166 kts | 305° |
| 2026-05-03 20:56 | 37.49918 | 126.37465 | 2057 ft | 180 kts | 304° |
| 2026-05-03 20:56 | 37.50366 | 126.35926 | 2209 ft | 197 kts | 283° |
| 2026-05-03 20:56 | 37.50479 | 126.34105 | 2412 ft | 218 kts | 277° |
| 2026-05-03 20:57 | 37.50523 | 126.32143 | 2794 ft | 230 kts | 276° |
| 2026-05-03 20:57 | 37.50561 | 126.30091 | 3278 ft | 238 kts | 276° |
| 2026-05-03 20:57 | 37.50604 | 126.28012 | 3830 ft | 243 kts | 276° |
| 2026-05-03 20:57 | 37.50648 | 126.25875 | 4473 ft | 245 kts | 276° |
| 2026-05-03 20:58 | 37.50697 | 126.23708 | 5070 ft | 249 kts | 276° |
| 2026-05-03 20:58 | 37.50747 | 126.21523 | 5743 ft | 250 kts | 276° |
| 2026-05-03 20:58 | 37.50784 | 126.19337 | 6390 ft | 250 kts | 272° |
| 2026-05-03 20:58 | 37.50295 | 126.17191 | 6810 ft | 266 kts | 244° |
| 2026-05-03 20:59 | 37.49251 | 126.15239 | 7259 ft | 271 kts | 243° |
| 2026-05-03 20:59 | 37.48203 | 126.13250 | 7841 ft | 273 kts | 243° |
| 2026-05-03 20:59 | 37.47161 | 126.11254 | 8479 ft | 273 kts | 243° |
| 2026-05-03 20:59 | 37.46111 | 126.09250 | 9075 ft | 275 kts | 243° |
| 2026-05-03 21:00 | 37.45067 | 126.07257 | 9636 ft | 278 kts | 243° |
| 2026-05-03 21:00 | 37.44345 | 126.05879 | 10000 ft | 279 kts | 243° |
| 2026-05-03 21:00 | 37.42900 | 126.03121 | 10442 ft | 296 kts | 243° |
| 2026-05-03 21:00 | 37.41732 | 126.00886 | 10599 ft | 314 kts | 243° |
| 2026-05-03 21:01 | 37.40774 | 125.98401 | 10689 ft | 319 kts | 263° |
| 2026-05-03 21:01 | 37.40636 | 125.95607 | 10825 ft | 327 kts | 275° |
| 2026-05-03 21:01 | 37.40644 | 125.92672 | 11176 ft | 340 kts | 274° |
| 2026-05-03 21:01 | 37.40620 | 125.89660 | 11771 ft | 348 kts | 273° |
| 2026-05-03 21:02 | 37.40586 | 125.86604 | 12583 ft | 350 kts | 272° |
| 2026-05-03 21:02 | 37.40548 | 125.83530 | 13463 ft | 352 kts | 272° |
| 2026-05-03 21:02 | 37.40509 | 125.80482 | 14221 ft | 355 kts | 272° |
| 2026-05-03 21:02 | 37.40469 | 125.77359 | 14918 ft | 359 kts | 272° |
| 2026-05-03 21:03 | 37.40427 | 125.74203 | 15608 ft | 363 kts | 272° |
| 2026-05-03 21:03 | 37.40384 | 125.71012 | 16327 ft | 366 kts | 271° |
| 2026-05-03 21:03 | 37.40339 | 125.67790 | 17024 ft | 370 kts | 271° |
| 2026-05-03 21:03 | 37.40293 | 125.64531 | 17704 ft | 375 kts | 271° |
| 2026-05-03 21:04 | 37.40249 | 125.61233 | 18348 ft | 379 kts | 271° |
| 2026-05-03 21:04 | 37.40206 | 125.57903 | 18932 ft | 383 kts | 271° |
| 2026-05-03 21:04 | 37.40162 | 125.54541 | 19533 ft | 386 kts | 271° |
| 2026-05-03 21:04 | 37.40116 | 125.51143 | 20122 ft | 390 kts | 271° |
| 2026-05-03 21:05 | 37.40068 | 125.47710 | 20662 ft | 394 kts | 272° |
| 2026-05-03 21:05 | 37.40019 | 125.44234 | 21167 ft | 400 kts | 272° |
| 2026-05-03 21:05 | 37.39969 | 125.40715 | 21712 ft | 404 kts | 272° |
| 2026-05-03 21:05 | 37.39916 | 125.37168 | 22265 ft | 407 kts | 272° |
| 2026-05-03 21:06 | 37.39862 | 125.33590 | 22810 ft | 411 kts | 272° |
| 2026-05-03 21:06 | 37.39807 | 125.29973 | 23319 ft | 415 kts | 272° |
| 2026-05-03 21:06 | 37.39750 | 125.26331 | 23764 ft | 419 kts | 272° |
| 2026-05-03 21:06 | 37.39690 | 125.22647 | 24176 ft | 423 kts | 272° |
| 2026-05-03 21:07 | 37.39630 | 125.18926 | 24535 ft | 428 kts | 272° |
| 2026-05-03 21:07 | 37.39569 | 125.15224 | 24960 ft | 430 kts | 272° |
| 2026-05-03 21:07 | 37.39506 | 125.11455 | 25441 ft | 431 kts | 272° |
| 2026-05-03 21:07 | 37.39441 | 125.07676 | 25905 ft | 433 kts | 272° |
| 2026-05-03 21:08 | 37.39374 | 125.03879 | 26335 ft | 436 kts | 272° |
| 2026-05-03 21:08 | 37.39307 | 125.00067 | 26748 ft | 437 kts | 272° |
| 2026-05-03 21:08 | 37.39237 | 124.96235 | 27191 ft | 438 kts | 272° |
| 2026-05-03 21:08 | 37.39166 | 124.92387 | 27527 ft | 442 kts | 272° |
| 2026-05-03 21:09 | 37.39095 | 124.88500 | 27870 ft | 445 kts | 272° |
| 2026-05-03 21:09 | 37.39021 | 124.84596 | 28238 ft | 447 kts | 272° |
| 2026-05-03 21:09 | 37.38944 | 124.80682 | 28604 ft | 449 kts | 272° |
| 2026-05-03 21:09 | 37.38864 | 124.76743 | 28962 ft | 451 kts | 272° |
| 2026-05-03 21:10 | 37.38782 | 124.72798 | 29273 ft | 453 kts | 272° |
| 2026-05-03 21:10 | 37.38699 | 124.68867 | 29486 ft | 457 kts | 273° |
| 2026-05-03 21:10 | 37.38615 | 124.64852 | 29690 ft | 461 kts | 273° |
| 2026-05-03 21:10 | 37.38528 | 124.60818 | 29992 ft | 462 kts | 272° |
| 2026-05-03 21:11 | 37.38440 | 124.56793 | 30391 ft | 459 kts | 272° |
| 2026-05-03 21:11 | 37.38350 | 124.52795 | 30856 ft | 455 kts | 272° |
| 2026-05-03 21:11 | 37.38257 | 124.48833 | 31284 ft | 451 kts | 271° |
| 2026-05-03 21:11 | 37.37885 | 124.44890 | 31473 ft | 458 kts | 262° |
| 2026-05-03 21:12 | 37.37010 | 124.41014 | 31745 ft | 463 kts | 255° |
| 2026-05-03 21:12 | 37.35796 | 124.37242 | 31880 ft | 470 kts | 249° |
| 2026-05-03 21:12 | 37.32355 | 124.30211 | 31942 ft | 480 kts | 242° |
| 2026-05-03 21:13 | 37.28685 | 124.23139 | 31959 ft | 485 kts | 243° |
| 2026-05-03 21:13 | 37.25047 | 124.15967 | 31939 ft | 488 kts | 243° |
| 2026-05-03 21:14 | 37.21351 | 124.08771 | 31952 ft | 492 kts | 242° |
| 2026-05-03 21:14 | 37.18068 | 124.01344 | 31948 ft | 481 kts | 256° |
| 2026-05-03 21:15 | 37.16734 | 123.93237 | 32041 ft | 470 kts | 271° |
| 2026-05-03 21:15 | 37.16855 | 123.85101 | 32056 ft | 467 kts | 275° |
| 2026-05-03 21:16 | 37.17040 | 123.76994 | 32070 ft | 469 kts | 275° |
| 2026-05-03 21:16 | 37.17182 | 123.68812 | 32072 ft | 469 kts | 275° |
| 2026-05-03 21:17 | 37.17280 | 123.62012 | 32067 ft | 470 kts | 275° |
| 2026-05-03 21:17 | 37.17408 | 123.52434 | 32068 ft | 470 kts | 275° |
| 2026-05-03 21:18 | 37.17511 | 123.44253 | 32080 ft | 469 kts | 275° |
| 2026-05-03 21:18 | 37.17609 | 123.36072 | 32076 ft | 469 kts | 275° |
| 2026-05-03 21:19 | 37.17701 | 123.27940 | 32079 ft | 468 kts | 275° |
| 2026-05-03 21:19 | 37.17789 | 123.19779 | 32078 ft | 467 kts | 274° |
| 2026-05-03 21:20 | 37.17869 | 123.11662 | 32075 ft | 464 kts | 275° |
| 2026-05-03 21:20 | 37.17945 | 123.03586 | 32083 ft | 463 kts | 275° |
| 2026-05-03 21:21 | 37.18016 | 122.95519 | 32090 ft | 462 kts | 275° |
| 2026-05-03 21:21 | 37.18081 | 122.87455 | 32070 ft | 463 kts | 275° |
| 2026-05-03 21:22 | 37.18139 | 122.79419 | 32089 ft | 464 kts | 275° |
| 2026-05-03 21:22 | 37.18193 | 122.71307 | 32100 ft | 466 kts | 275° |
| 2026-05-03 21:23 | 37.18241 | 122.63162 | 32100 ft | 467 kts | 275° |
| 2026-05-03 21:23 | 37.18284 | 122.54984 | 32070 ft | 469 kts | 275° |
| 2026-05-03 21:24 | 37.18322 | 122.46849 | 32099 ft | 469 kts | 275° |
| 2026-05-03 21:24 | 37.18353 | 122.38664 | 32110 ft | 469 kts | 275° |
| 2026-05-03 21:25 | 37.18380 | 122.30481 | 32099 ft | 469 kts | 275° |
| 2026-05-03 21:25 | 37.18900 | 122.22393 | 32106 ft | 463 kts | 283° |
| 2026-05-03 21:26 | 37.20393 | 122.14558 | 32115 ft | 459 kts | 291° |
| 2026-05-03 21:26 | 37.22404 | 122.06941 | 32092 ft | 460 kts | 291° |
| 2026-05-03 21:27 | 37.24414 | 121.99319 | 32106 ft | 460 kts | 291° |
| 2026-05-03 21:27 | 37.26390 | 121.91723 | 32116 ft | 461 kts | 291° |
| 2026-05-03 21:28 | 37.28370 | 121.84046 | 32120 ft | 462 kts | 291° |
| 2026-05-03 21:28 | 37.30343 | 121.76366 | 32107 ft | 462 kts | 291° |
| 2026-05-03 21:29 | 37.31979 | 121.69981 | 32119 ft | 462 kts | 291° |
| 2026-05-03 21:29 | 37.33943 | 121.62297 | 32119 ft | 462 kts | 291° |
| 2026-05-03 21:30 | 37.35906 | 121.54595 | 32126 ft | 462 kts | 291° |
| 2026-05-03 21:30 | 37.37863 | 121.46893 | 32128 ft | 462 kts | 291° |
| 2026-05-03 21:31 | 37.39819 | 121.39173 | 32129 ft | 463 kts | 291° |
| 2026-05-03 21:31 | 37.41768 | 121.31454 | 32128 ft | 463 kts | 291° |
| 2026-05-03 21:32 | 37.43711 | 121.23737 | 32113 ft | 463 kts | 291° |
| 2026-05-03 21:32 | 37.45702 | 121.16109 | 32126 ft | 461 kts | 294° |
| 2026-05-03 21:33 | 37.48091 | 121.08633 | 32136 ft | 460 kts | 295° |
| 2026-05-03 21:33 | 37.50492 | 121.01160 | 32138 ft | 460 kts | 295° |
| 2026-05-03 21:34 | 37.52870 | 120.93674 | 32118 ft | 460 kts | 294° |
| 2026-05-03 21:34 | 37.55237 | 120.86179 | 32129 ft | 460 kts | 294° |
| 2026-05-03 21:35 | 37.57592 | 120.78710 | 32135 ft | 461 kts | 294° |
| 2026-05-03 21:35 | 37.59991 | 120.71204 | 32136 ft | 461 kts | 295° |
| 2026-05-03 21:36 | 37.62469 | 120.63738 | 32132 ft | 461 kts | 295° |
| 2026-05-03 21:36 | 37.64933 | 120.56261 | 32139 ft | 461 kts | 296° |
| 2026-05-03 21:37 | 37.67895 | 120.49132 | 32153 ft | 458 kts | 302° |
| 2026-05-03 21:37 | 37.71112 | 120.42179 | 32136 ft | 458 kts | 302° |
| 2026-05-03 21:38 | 37.74311 | 120.35196 | 32137 ft | 459 kts | 302° |
| 2026-05-03 21:38 | 37.77474 | 120.28241 | 32139 ft | 459 kts | 302° |
| 2026-05-03 21:39 | 37.80651 | 120.21234 | 32133 ft | 460 kts | 302° |
| 2026-05-03 21:39 | 37.83828 | 120.14211 | 32136 ft | 460 kts | 302° |
| 2026-05-03 21:40 | 37.87009 | 120.07167 | 32132 ft | 460 kts | 301° |
| 2026-05-03 21:40 | 37.90163 | 120.00167 | 32136 ft | 460 kts | 301° |
| 2026-05-03 21:41 | 37.93334 | 119.93112 | 32141 ft | 461 kts | 301° |
| 2026-05-03 21:41 | 37.96505 | 119.86044 | 32139 ft | 461 kts | 301° |
| 2026-05-03 21:42 | 37.99673 | 119.78965 | 32150 ft | 461 kts | 301° |
| 2026-05-03 21:42 | 38.02835 | 119.71884 | 32142 ft | 462 kts | 301° |
| 2026-05-03 21:43 | 38.05996 | 119.64790 | 32144 ft | 462 kts | 301° |
| 2026-05-03 21:43 | 38.09131 | 119.57740 | 32141 ft | 462 kts | 301° |
| 2026-05-03 21:44 | 38.12086 | 119.50498 | 32127 ft | 463 kts | 295° |
| 2026-05-03 21:44 | 38.14524 | 119.42915 | 32138 ft | 464 kts | 294° |
| 2026-05-03 21:45 | 38.16974 | 119.35319 | 32142 ft | 465 kts | 295° |
| 2026-05-03 21:45 | 38.19443 | 119.27705 | 32141 ft | 465 kts | 295° |
| 2026-05-03 21:46 | 38.21897 | 119.20138 | 32129 ft | 466 kts | 294° |
| 2026-05-03 21:46 | 38.24366 | 119.12502 | 32145 ft | 467 kts | 294° |
| 2026-05-03 21:47 | 38.26834 | 119.04849 | 32140 ft | 468 kts | 294° |
| 2026-05-03 21:47 | 38.29303 | 118.97169 | 32143 ft | 468 kts | 294° |
| 2026-05-03 21:48 | 38.31766 | 118.89487 | 32131 ft | 469 kts | 294° |
| 2026-05-03 21:48 | 38.34226 | 118.81793 | 32148 ft | 469 kts | 294° |
| 2026-05-03 21:49 | 38.36686 | 118.74080 | 32145 ft | 470 kts | 294° |
| 2026-05-03 21:49 | 38.39138 | 118.66360 | 32143 ft | 470 kts | 294° |
| 2026-05-03 21:50 | 38.41586 | 118.58629 | 32134 ft | 470 kts | 294° |
| 2026-05-03 21:50 | 38.44013 | 118.50945 | 32149 ft | 470 kts | 294° |
| 2026-05-03 21:51 | 38.46455 | 118.43194 | 32143 ft | 470 kts | 293° |
| 2026-05-03 21:51 | 38.48898 | 118.35432 | 32134 ft | 470 kts | 293° |
| 2026-05-03 21:52 | 38.51338 | 118.27692 | 32138 ft | 470 kts | 293° |
| 2026-05-03 21:52 | 38.53771 | 118.19947 | 32151 ft | 470 kts | 293° |
| 2026-05-03 21:53 | 38.56200 | 118.12195 | 32150 ft | 470 kts | 293° |
| 2026-05-03 21:53 | 38.58978 | 118.04712 | 32127 ft | 468 kts | 302° |
| 2026-05-03 21:54 | 38.62759 | 117.97951 | 32131 ft | 468 kts | 311° |
| 2026-05-03 21:54 | 38.67247 | 117.91916 | 32146 ft | 468 kts | 314° |
| 2026-05-03 21:55 | 38.71804 | 117.85936 | 32170 ft | 469 kts | 314° |
| 2026-05-03 21:55 | 38.76343 | 117.79911 | 32145 ft | 469 kts | 314° |
| 2026-05-03 21:56 | 38.80835 | 117.73901 | 32152 ft | 469 kts | 314° |
| 2026-05-03 21:56 | 38.85348 | 117.67843 | 32143 ft | 469 kts | 313° |
| 2026-05-03 21:57 | 38.89858 | 117.61778 | 32145 ft | 469 kts | 313° |
| 2026-05-03 21:57 | 38.94333 | 117.55751 | 32133 ft | 469 kts | 313° |
| 2026-05-03 21:58 | 38.98826 | 117.49686 | 32125 ft | 468 kts | 313° |
| 2026-05-03 21:58 | 39.03330 | 117.43597 | 32130 ft | 469 kts | 313° |
| 2026-05-03 21:59 | 39.07062 | 117.36778 | 32123 ft | 469 kts | 297° |
| 2026-05-03 21:59 | 39.09170 | 117.28829 | 32114 ft | 474 kts | 282° |
| 2026-05-03 22:00 | 39.10183 | 117.20467 | 32119 ft | 475 kts | 281° |
| 2026-05-03 22:00 | 39.11226 | 117.12063 | 32130 ft | 476 kts | 282° |
| 2026-05-03 22:01 | 39.12324 | 117.03639 | 32129 ft | 477 kts | 282° |
| 2026-05-03 22:01 | 39.13464 | 116.95200 | 32121 ft | 478 kts | 283° |
| 2026-05-03 22:02 | 39.14823 | 116.86817 | 32117 ft | 478 kts | 284° |
| 2026-05-03 22:02 | 39.16187 | 116.78416 | 32121 ft | 479 kts | 284° |
| 2026-05-03 22:03 | 39.17502 | 116.70043 | 32119 ft | 480 kts | 283° |
| 2026-05-03 22:03 | 39.18679 | 116.61510 | 32101 ft | 482 kts | 276° |
| 2026-05-03 22:04 | 39.18378 | 116.52902 | 32117 ft | 488 kts | 264° |
| 2026-05-03 22:04 | 39.16670 | 116.44386 | 32114 ft | 492 kts | 256° |
| 2026-05-03 22:05 | 39.14647 | 116.35961 | 32123 ft | 492 kts | 256° |
| 2026-05-03 22:05 | 39.12645 | 116.27505 | 32122 ft | 493 kts | 256° |
| 2026-05-03 22:06 | 39.10674 | 116.19044 | 32116 ft | 493 kts | 256° |
| 2026-05-03 22:06 | 39.08706 | 116.10582 | 32124 ft | 493 kts | 256° |
| 2026-05-03 22:07 | 39.06741 | 116.02173 | 32126 ft | 494 kts | 256° |
| 2026-05-03 22:07 | 39.04756 | 115.93716 | 32114 ft | 494 kts | 256° |
| 2026-05-03 22:08 | 39.02762 | 115.85251 | 32132 ft | 494 kts | 256° |
| 2026-05-03 22:08 | 39.00762 | 115.76793 | 32123 ft | 495 kts | 256° |
| 2026-05-03 22:09 | 38.98755 | 115.68337 | 32130 ft | 495 kts | 256° |
| 2026-05-03 22:10 | 38.95730 | 115.55640 | 32129 ft | 496 kts | 256° |
| 2026-05-03 22:10 | 38.93477 | 115.47301 | 32138 ft | 499 kts | 249° |
| 2026-05-03 22:11 | 38.90579 | 115.39182 | 32148 ft | 500 kts | 249° |
| 2026-05-03 22:11 | 38.87672 | 115.31054 | 32130 ft | 501 kts | 249° |
| 2026-05-03 22:12 | 38.84794 | 115.22910 | 32153 ft | 501 kts | 249° |
| 2026-05-03 22:12 | 38.81918 | 115.14762 | 32151 ft | 501 kts | 249° |
| 2026-05-03 22:13 | 38.79050 | 115.06665 | 32155 ft | 502 kts | 249° |
| 2026-05-03 22:13 | 38.76156 | 114.98522 | 32144 ft | 502 kts | 249° |
| 2026-05-03 22:14 | 38.73258 | 114.90380 | 32160 ft | 502 kts | 249° |
| 2026-05-03 22:14 | 38.70354 | 114.82227 | 32162 ft | 503 kts | 249° |
| 2026-05-03 22:15 | 38.67454 | 114.74105 | 32159 ft | 503 kts | 249° |
| 2026-05-03 22:15 | 38.64539 | 114.65961 | 32143 ft | 503 kts | 249° |
| 2026-05-03 22:16 | 38.61615 | 114.57814 | 32166 ft | 504 kts | 249° |
| 2026-05-03 22:16 | 38.59187 | 114.51034 | 32160 ft | 504 kts | 249° |
| 2026-05-03 22:17 | 38.55760 | 114.41569 | 32165 ft | 505 kts | 249° |
| 2026-05-03 22:17 | 38.53278 | 114.34754 | 32154 ft | 505 kts | 249° |
| 2026-05-03 22:18 | 38.50316 | 114.26627 | 32160 ft | 505 kts | 249° |
| 2026-05-03 22:18 | 38.47371 | 114.18561 | 32164 ft | 504 kts | 249° |
| 2026-05-03 22:19 | 38.44400 | 114.10442 | 32160 ft | 504 kts | 249° |
| 2026-05-03 22:19 | 38.41430 | 114.02351 | 32151 ft | 504 kts | 249° |
| 2026-05-03 22:20 | 38.38466 | 113.94276 | 32169 ft | 503 kts | 249° |
| 2026-05-03 22:20 | 38.35495 | 113.86187 | 32177 ft | 503 kts | 249° |
| 2026-05-03 22:21 | 38.32505 | 113.78119 | 32172 ft | 504 kts | 248° |
| 2026-05-03 22:21 | 38.29456 | 113.70054 | 32177 ft | 504 kts | 248° |
| 2026-05-03 22:22 | 38.26422 | 113.62053 | 32178 ft | 504 kts | 248° |
| 2026-05-03 22:22 | 38.23368 | 113.53997 | 32180 ft | 505 kts | 248° |
| 2026-05-03 22:23 | 38.20311 | 113.45945 | 32164 ft | 506 kts | 248° |
| 2026-05-03 22:23 | 38.17246 | 113.37895 | 32178 ft | 506 kts | 248° |
| 2026-05-03 22:24 | 38.14205 | 113.29842 | 32187 ft | 505 kts | 249° |
| 2026-05-03 22:24 | 38.11204 | 113.21767 | 32171 ft | 506 kts | 249° |
| 2026-05-03 22:25 | 38.08196 | 113.13689 | 32171 ft | 506 kts | 249° |
| 2026-05-03 22:25 | 38.05175 | 113.05627 | 32170 ft | 506 kts | 249° |
| 2026-05-03 22:26 | 38.02161 | 112.97614 | 32174 ft | 506 kts | 248° |
| 2026-05-03 22:26 | 37.99120 | 112.89547 | 32183 ft | 507 kts | 248° |
| 2026-05-03 22:27 | 37.96075 | 112.81485 | 32160 ft | 507 kts | 248° |
| 2026-05-03 22:27 | 37.93024 | 112.73433 | 32164 ft | 507 kts | 248° |
| 2026-05-03 22:28 | 37.89966 | 112.65380 | 32171 ft | 507 kts | 248° |
| 2026-05-03 22:28 | 37.86894 | 112.57332 | 32177 ft | 508 kts | 247° |
| 2026-05-03 22:29 | 37.83521 | 112.49444 | 32171 ft | 510 kts | 245° |
| 2026-05-03 22:29 | 37.80140 | 112.41631 | 32154 ft | 507 kts | 246° |
| 2026-05-03 22:29 | 37.78805 | 112.37546 | 32165 ft | 500 kts | 258° |
| 2026-05-03 22:30 | 37.78106 | 112.33262 | 32171 ft | 495 kts | 267° |
| 2026-05-03 22:30 | 37.78278 | 112.24668 | 32189 ft | 486 kts | 281° |
| 2026-05-03 22:31 | 37.79213 | 112.16185 | 32176 ft | 488 kts | 281° |
| 2026-05-03 22:31 | 37.80085 | 112.07658 | 32177 ft | 490 kts | 280° |
| 2026-05-03 22:32 | 37.80908 | 111.99089 | 32173 ft | 491 kts | 280° |
| 2026-05-03 22:32 | 37.81721 | 111.90504 | 32151 ft | 492 kts | 280° |
| 2026-05-03 22:33 | 37.82531 | 111.81921 | 32166 ft | 492 kts | 280° |
| 2026-05-03 22:33 | 37.83340 | 111.73330 | 32144 ft | 491 kts | 279° |
| 2026-05-03 22:34 | 37.84212 | 111.64778 | 32145 ft | 489 kts | 281° |
| 2026-05-03 22:34 | 37.85168 | 111.56283 | 32141 ft | 483 kts | 284° |
| 2026-05-03 22:34 | 37.86205 | 111.52270 | 32143 ft | 478 kts | 298° |
| 2026-05-03 22:35 | 37.87898 | 111.48722 | 32153 ft | 476 kts | 308° |
| 2026-05-03 22:35 | 37.90075 | 111.45586 | 32151 ft | 474 kts | 319° |
| 2026-05-03 22:35 | 37.92657 | 111.43021 | 32163 ft | 471 kts | 323° |
| 2026-05-03 22:36 | 37.97927 | 111.38001 | 32151 ft | 475 kts | 323° |
| 2026-05-03 22:36 | 38.03201 | 111.32877 | 32149 ft | 478 kts | 322° |
| 2026-05-03 22:37 | 38.08463 | 111.27694 | 32150 ft | 479 kts | 322° |
| 2026-05-03 22:37 | 38.13688 | 111.22521 | 32148 ft | 480 kts | 322° |
| 2026-05-03 22:38 | 38.18964 | 111.17288 | 32137 ft | 479 kts | 322° |
| 2026-05-03 22:38 | 38.24217 | 111.12070 | 32133 ft | 478 kts | 322° |
| 2026-05-03 22:39 | 38.29460 | 111.06855 | 32140 ft | 478 kts | 322° |
| 2026-05-03 22:39 | 38.34693 | 111.01640 | 32151 ft | 477 kts | 322° |
| 2026-05-03 22:40 | 38.39885 | 110.96455 | 32138 ft | 477 kts | 322° |
| 2026-05-03 22:40 | 38.45105 | 110.91232 | 32139 ft | 476 kts | 322° |
| 2026-05-03 22:41 | 38.50319 | 110.86006 | 32128 ft | 476 kts | 322° |
| 2026-05-03 22:41 | 38.55529 | 110.80774 | 32130 ft | 476 kts | 322° |
| 2026-05-03 22:42 | 38.60739 | 110.75532 | 32137 ft | 476 kts | 322° |
| 2026-05-03 22:42 | 38.65945 | 110.70284 | 32127 ft | 476 kts | 322° |
| 2026-05-03 22:43 | 38.71146 | 110.65031 | 32120 ft | 476 kts | 322° |
| 2026-05-03 22:43 | 38.76309 | 110.59806 | 32117 ft | 476 kts | 322° |
| 2026-05-03 22:44 | 38.81501 | 110.54541 | 32112 ft | 476 kts | 322° |
| 2026-05-03 22:44 | 38.86686 | 110.49273 | 32124 ft | 475 kts | 322° |
| 2026-05-03 22:45 | 38.91872 | 110.43995 | 32106 ft | 475 kts | 322° |
| 2026-05-03 22:45 | 38.97055 | 110.38719 | 32115 ft | 475 kts | 322° |
| 2026-05-03 22:46 | 39.02252 | 110.33478 | 32115 ft | 475 kts | 322° |
| 2026-05-03 22:46 | 39.07457 | 110.28222 | 32114 ft | 475 kts | 322° |
| 2026-05-03 22:47 | 39.12654 | 110.22956 | 32119 ft | 475 kts | 322° |
| 2026-05-03 22:47 | 39.17411 | 110.17132 | 32102 ft | 475 kts | 304° |
| 2026-05-03 22:48 | 39.19845 | 110.09265 | 32109 ft | 483 kts | 281° |
| 2026-05-03 22:48 | 39.20234 | 110.00607 | 32114 ft | 486 kts | 275° |
| 2026-05-03 22:49 | 39.20551 | 109.91857 | 32119 ft | 489 kts | 276° |
| 2026-05-03 22:49 | 39.20935 | 109.83077 | 32122 ft | 491 kts | 276° |
| 2026-05-03 22:50 | 39.21334 | 109.74327 | 32114 ft | 492 kts | 276° |
| 2026-05-03 22:50 | 39.21729 | 109.65505 | 32112 ft | 493 kts | 276° |
| 2026-05-03 22:51 | 39.22114 | 109.56669 | 32116 ft | 493 kts | 276° |
| 2026-05-03 22:51 | 39.22491 | 109.47829 | 32126 ft | 493 kts | 276° |
| 2026-05-03 22:52 | 39.22833 | 109.38980 | 32446 ft | 492 kts | 275° |
| 2026-05-03 22:52 | 39.22995 | 109.34565 | 32740 ft | 490 kts | 275° |
| 2026-05-03 22:52 | 39.23154 | 109.30241 | 33024 ft | 488 kts | 275° |
| 2026-05-03 22:52 | 39.23314 | 109.25878 | 33282 ft | 486 kts | 275° |
| 2026-05-03 22:53 | 39.23473 | 109.21531 | 33485 ft | 485 kts | 275° |
| 2026-05-03 22:53 | 39.23632 | 109.17181 | 33666 ft | 485 kts | 275° |
| 2026-05-03 22:53 | 39.23789 | 109.12834 | 33856 ft | 485 kts | 275° |
| 2026-05-03 22:53 | 39.23943 | 109.08499 | 33994 ft | 484 kts | 275° |
| 2026-05-03 22:54 | 39.24097 | 109.04153 | 34054 ft | 484 kts | 275° |
| 2026-05-03 22:54 | 39.24399 | 108.95451 | 34112 ft | 485 kts | 275° |
| 2026-05-03 22:55 | 39.24695 | 108.86748 | 34120 ft | 485 kts | 275° |
| 2026-05-03 22:55 | 39.24987 | 108.78053 | 34119 ft | 485 kts | 275° |
| 2026-05-03 22:56 | 39.25279 | 108.69420 | 34115 ft | 485 kts | 275° |
| 2026-05-03 22:56 | 39.25566 | 108.60723 | 34118 ft | 485 kts | 275° |
| 2026-05-03 22:57 | 39.25846 | 108.52031 | 34113 ft | 484 kts | 275° |
| 2026-05-03 22:57 | 39.26120 | 108.43335 | 34113 ft | 484 kts | 275° |
| 2026-05-03 22:58 | 39.26386 | 108.34649 | 34115 ft | 484 kts | 275° |
| 2026-05-03 22:58 | 39.26646 | 108.26018 | 34118 ft | 484 kts | 275° |
| 2026-05-03 22:59 | 39.26908 | 108.17355 | 34110 ft | 480 kts | 277° |
| 2026-05-03 22:59 | 39.27525 | 108.13156 | 34113 ft | 474 kts | 292° |
| 2026-05-03 22:59 | 39.28948 | 108.09349 | 34127 ft | 471 kts | 304° |
| 2026-05-03 22:59 | 39.30925 | 108.05996 | 34121 ft | 469 kts | 315° |
| 2026-05-03 23:00 | 39.33386 | 108.03249 | 34123 ft | 466 kts | 321° |
| 2026-05-03 23:00 | 39.38452 | 107.97953 | 34122 ft | 469 kts | 321° |
| 2026-05-03 23:01 | 39.43473 | 107.92596 | 34117 ft | 472 kts | 320° |
| 2026-05-03 23:01 | 39.48531 | 107.87123 | 34109 ft | 474 kts | 320° |
| 2026-05-03 23:02 | 39.53594 | 107.81615 | 34102 ft | 476 kts | 320° |
| 2026-05-03 23:02 | 39.58662 | 107.76092 | 34095 ft | 476 kts | 320° |
| 2026-05-03 23:03 | 39.63729 | 107.70560 | 34093 ft | 476 kts | 320° |
| 2026-05-03 23:03 | 39.68779 | 107.65037 | 34093 ft | 474 kts | 320° |
| 2026-05-03 23:04 | 39.72971 | 107.60446 | 34087 ft | 473 kts | 320° |
| 2026-05-03 23:04 | 39.78000 | 107.54926 | 34075 ft | 472 kts | 320° |
| 2026-05-03 23:05 | 39.83019 | 107.49406 | 34084 ft | 472 kts | 320° |
| 2026-05-03 23:05 | 39.88026 | 107.43890 | 34068 ft | 471 kts | 320° |
| 2026-05-03 23:06 | 39.92996 | 107.38402 | 34061 ft | 470 kts | 320° |
| 2026-05-03 23:06 | 39.97989 | 107.32879 | 34064 ft | 469 kts | 320° |
| 2026-05-03 23:07 | 40.02963 | 107.27365 | 34056 ft | 469 kts | 320° |
| 2026-05-03 23:07 | 40.07938 | 107.21840 | 34058 ft | 469 kts | 320° |
| 2026-05-03 23:08 | 40.12907 | 107.16309 | 34048 ft | 469 kts | 320° |
| 2026-05-03 23:08 | 40.17881 | 107.10762 | 34051 ft | 470 kts | 320° |
| 2026-05-03 23:09 | 40.22822 | 107.05241 | 34049 ft | 470 kts | 320° |
| 2026-05-03 23:09 | 40.27754 | 106.99546 | 34036 ft | 470 kts | 313° |
| 2026-05-03 23:10 | 40.31525 | 106.92627 | 34052 ft | 471 kts | 300° |
| 2026-05-03 23:10 | 40.34041 | 106.84670 | 34050 ft | 473 kts | 291° |
| 2026-05-03 23:11 | 40.36153 | 106.76480 | 34046 ft | 474 kts | 290° |
| 2026-05-03 23:11 | 40.38277 | 106.68286 | 34040 ft | 474 kts | 291° |
| 2026-05-03 23:12 | 40.40415 | 106.60148 | 34049 ft | 474 kts | 291° |
| 2026-05-03 23:12 | 40.42574 | 106.51964 | 34047 ft | 474 kts | 291° |
| 2026-05-03 23:13 | 40.44729 | 106.43780 | 34049 ft | 474 kts | 291° |
| 2026-05-03 23:13 | 40.46876 | 106.35593 | 34048 ft | 474 kts | 291° |
| 2026-05-03 23:14 | 40.49017 | 106.27396 | 34045 ft | 473 kts | 291° |
| 2026-05-03 23:14 | 40.51147 | 106.19215 | 34050 ft | 473 kts | 291° |
| 2026-05-03 23:15 | 40.53255 | 106.11092 | 34044 ft | 473 kts | 291° |
| 2026-05-03 23:15 | 40.55373 | 106.02904 | 34048 ft | 472 kts | 290° |
| 2026-05-03 23:16 | 40.57482 | 105.94721 | 34061 ft | 472 kts | 290° |
| 2026-05-03 23:16 | 40.59591 | 105.86509 | 34047 ft | 473 kts | 290° |
| 2026-05-03 23:17 | 40.61690 | 105.78311 | 34052 ft | 473 kts | 290° |
| 2026-05-03 23:17 | 40.63771 | 105.70156 | 34053 ft | 473 kts | 290° |
| 2026-05-03 23:18 | 40.65858 | 105.61948 | 34042 ft | 472 kts | 290° |
| 2026-05-03 23:18 | 40.67942 | 105.53722 | 34043 ft | 473 kts | 290° |
| 2026-05-03 23:19 | 40.70020 | 105.45495 | 34042 ft | 473 kts | 290° |
| 2026-05-03 23:19 | 40.72079 | 105.37313 | 34044 ft | 473 kts | 290° |
| 2026-05-03 23:20 | 40.74146 | 105.29071 | 34035 ft | 474 kts | 290° |
| 2026-05-03 23:20 | 40.76209 | 105.20819 | 34032 ft | 474 kts | 290° |
| 2026-05-03 23:21 | 40.78268 | 105.12551 | 34027 ft | 474 kts | 290° |
| 2026-05-03 23:21 | 40.80323 | 105.04272 | 34028 ft | 474 kts | 289° |
| 2026-05-03 23:22 | 40.83396 | 104.91839 | 34018 ft | 475 kts | 289° |
| 2026-05-03 23:22 | 40.85440 | 104.83529 | 34022 ft | 476 kts | 289° |
| 2026-05-03 23:23 | 40.87466 | 104.75265 | 34026 ft | 476 kts | 289° |
| 2026-05-03 23:23 | 40.89502 | 104.66933 | 34027 ft | 477 kts | 289° |
| 2026-05-03 23:24 | 40.91537 | 104.58573 | 34016 ft | 477 kts | 289° |
| 2026-05-03 23:24 | 40.93565 | 104.50209 | 34006 ft | 478 kts | 289° |
| 2026-05-03 23:25 | 40.95589 | 104.41835 | 34006 ft | 478 kts | 289° |
| 2026-05-03 23:25 | 40.97607 | 104.33460 | 33998 ft | 478 kts | 289° |
| 2026-05-03 23:26 | 40.99834 | 104.25185 | 34002 ft | 477 kts | 292° |
| 2026-05-03 23:26 | 41.02210 | 104.17041 | 33989 ft | 477 kts | 292° |
| 2026-05-03 23:27 | 41.04593 | 104.08853 | 33994 ft | 477 kts | 292° |
| 2026-05-03 23:27 | 41.06958 | 104.00627 | 33995 ft | 477 kts | 292° |
| 2026-05-03 23:28 | 41.09306 | 103.92402 | 33995 ft | 477 kts | 292° |
| 2026-05-03 23:28 | 41.11647 | 103.84172 | 33984 ft | 477 kts | 291° |
| 2026-05-03 23:29 | 41.13988 | 103.75920 | 33989 ft | 478 kts | 291° |
| 2026-05-03 23:29 | 41.16329 | 103.67641 | 33989 ft | 478 kts | 291° |
| 2026-05-03 23:30 | 41.18645 | 103.59424 | 33986 ft | 479 kts | 291° |
| 2026-05-03 23:30 | 41.20975 | 103.51128 | 33984 ft | 480 kts | 291° |
| 2026-05-03 23:31 | 41.23308 | 103.42798 | 33977 ft | 480 kts | 291° |
| 2026-05-03 23:31 | 41.25635 | 103.34459 | 33981 ft | 481 kts | 291° |
| 2026-05-03 23:32 | 41.27957 | 103.26113 | 33981 ft | 482 kts | 291° |
| 2026-05-03 23:32 | 41.30274 | 103.17757 | 33977 ft | 482 kts | 291° |
| 2026-05-03 23:33 | 41.32592 | 103.09367 | 33972 ft | 483 kts | 291° |
| 2026-05-03 23:33 | 41.34895 | 103.01010 | 33974 ft | 484 kts | 291° |
| 2026-05-03 23:34 | 41.37257 | 102.92614 | 33971 ft | 484 kts | 292° |
| 2026-05-03 23:34 | 41.39693 | 102.84242 | 33970 ft | 485 kts | 292° |
| 2026-05-03 23:35 | 41.42113 | 102.75852 | 33965 ft | 485 kts | 292° |
| 2026-05-03 23:35 | 41.44522 | 102.67440 | 33965 ft | 485 kts | 292° |
| 2026-05-03 23:36 | 41.46927 | 102.59081 | 33961 ft | 486 kts | 292° |
| 2026-05-03 23:36 | 41.49346 | 102.50660 | 33959 ft | 486 kts | 292° |
| 2026-05-03 23:37 | 41.51760 | 102.42222 | 33960 ft | 486 kts | 292° |
| 2026-05-03 23:37 | 41.54168 | 102.33771 | 33961 ft | 487 kts | 292° |
| 2026-05-03 23:38 | 41.56572 | 102.25304 | 33961 ft | 488 kts | 292° |
| 2026-05-03 23:38 | 41.58972 | 102.16823 | 33960 ft | 488 kts | 292° |
| 2026-05-03 23:39 | 41.61369 | 102.08324 | 33960 ft | 488 kts | 292° |
| 2026-05-03 23:39 | 41.63759 | 101.99824 | 33947 ft | 489 kts | 292° |
| 2026-05-03 23:40 | 41.66147 | 101.91299 | 33960 ft | 489 kts | 292° |
| 2026-05-03 23:40 | 41.68512 | 101.82832 | 33955 ft | 490 kts | 292° |
| 2026-05-03 23:41 | 41.70895 | 101.74267 | 33948 ft | 490 kts | 292° |
| 2026-05-03 23:41 | 41.73268 | 101.65712 | 33940 ft | 490 kts | 292° |
| 2026-05-03 23:42 | 41.75636 | 101.57144 | 33946 ft | 490 kts | 292° |
| 2026-05-03 23:42 | 41.77985 | 101.48616 | 33946 ft | 490 kts | 292° |
| 2026-05-03 23:43 | 41.80341 | 101.40029 | 33945 ft | 491 kts | 292° |
| 2026-05-03 23:43 | 41.82692 | 101.31438 | 33945 ft | 491 kts | 292° |
| 2026-05-03 23:44 | 41.84647 | 101.22643 | 33945 ft | 493 kts | 283° |
| 2026-05-03 23:44 | 41.85425 | 101.13482 | 33944 ft | 496 kts | 274° |
| 2026-05-03 23:45 | 41.85611 | 101.04211 | 33944 ft | 497 kts | 274° |
| 2026-05-03 23:45 | 41.85781 | 100.94993 | 33950 ft | 497 kts | 274° |
| 2026-05-03 23:46 | 41.85974 | 100.85723 | 33945 ft | 497 kts | 274° |
| 2026-05-03 23:46 | 41.86178 | 100.76450 | 33953 ft | 497 kts | 274° |
| 2026-05-03 23:47 | 41.86378 | 100.67161 | 33940 ft | 498 kts | 274° |
| 2026-05-03 23:47 | 41.86569 | 100.57883 | 33947 ft | 498 kts | 274° |
| 2026-05-03 23:48 | 41.86751 | 100.48593 | 33932 ft | 498 kts | 274° |
| 2026-05-03 23:48 | 41.86926 | 100.39307 | 33949 ft | 498 kts | 274° |
| 2026-05-03 23:49 | 41.87094 | 100.30011 | 33944 ft | 498 kts | 274° |
| 2026-05-03 23:49 | 41.87253 | 100.20760 | 33946 ft | 499 kts | 274° |
| 2026-05-03 23:50 | 41.87381 | 100.12965 | 33946 ft | 499 kts | 274° |
| 2026-05-03 23:50 | 41.87551 | 100.02148 | 33950 ft | 499 kts | 274° |
| 2026-05-03 23:51 | 41.87689 | 99.92810 | 33957 ft | 500 kts | 274° |
| 2026-05-03 23:51 | 41.87798 | 99.85054 | 33954 ft | 500 kts | 274° |
| 2026-05-03 23:52 | 41.87922 | 99.75719 | 33947 ft | 500 kts | 274° |
| 2026-05-03 23:52 | 41.88039 | 99.66382 | 33955 ft | 500 kts | 274° |
| 2026-05-03 23:53 | 41.88148 | 99.57060 | 33955 ft | 500 kts | 274° |
| 2026-05-03 23:53 | 41.88250 | 99.47727 | 33957 ft | 500 kts | 274° |
| 2026-05-03 23:54 | 41.88342 | 99.38454 | 33954 ft | 499 kts | 274° |
| 2026-05-03 23:54 | 41.88429 | 99.29141 | 33954 ft | 499 kts | 274° |
| 2026-05-03 23:55 | 41.88508 | 99.19827 | 33958 ft | 498 kts | 273° |
| 2026-05-03 23:55 | 41.88579 | 99.10535 | 33955 ft | 498 kts | 273° |
| 2026-05-03 23:56 | 41.88642 | 99.01249 | 33958 ft | 497 kts | 274° |
| 2026-05-03 23:56 | 41.88698 | 98.91977 | 33967 ft | 496 kts | 274° |
| 2026-05-03 23:57 | 41.88747 | 98.82725 | 33964 ft | 496 kts | 273° |
| 2026-05-03 23:57 | 41.88788 | 98.73528 | 33970 ft | 496 kts | 273° |
| 2026-05-03 23:58 | 41.88821 | 98.64283 | 33970 ft | 495 kts | 273° |
| 2026-05-03 23:58 | 41.88847 | 98.55052 | 33967 ft | 494 kts | 273° |
| 2026-05-03 23:59 | 41.88867 | 98.45843 | 33972 ft | 493 kts | 273° |
| 2026-05-03 23:59 | 41.88878 | 98.36636 | 33966 ft | 493 kts | 273° |
| 2026-05-04 00:00 | 41.88882 | 98.27433 | 33976 ft | 492 kts | 273° |
| 2026-05-04 00:00 | 41.88878 | 98.18253 | 33985 ft | 491 kts | 273° |
| 2026-05-04 00:01 | 41.88868 | 98.09143 | 33983 ft | 490 kts | 273° |
| 2026-05-04 00:01 | 41.88850 | 97.99991 | 33990 ft | 490 kts | 273° |
| 2026-05-04 00:02 | 41.88826 | 97.90857 | 33988 ft | 489 kts | 272° |
| 2026-05-04 00:02 | 41.88793 | 97.81736 | 33996 ft | 488 kts | 272° |
| 2026-05-04 00:03 | 41.88754 | 97.72629 | 33991 ft | 488 kts | 272° |
| 2026-05-04 00:03 | 41.88707 | 97.63526 | 33991 ft | 487 kts | 272° |
| 2026-05-04 00:04 | 41.88654 | 97.54501 | 33980 ft | 487 kts | 272° |
| 2026-05-04 00:04 | 41.88594 | 97.45423 | 33980 ft | 486 kts | 272° |
| 2026-05-04 00:05 | 41.88526 | 97.36352 | 33984 ft | 485 kts | 272° |
| 2026-05-04 00:05 | 41.88451 | 97.27286 | 33973 ft | 485 kts | 272° |
| 2026-05-04 00:06 | 41.88369 | 97.18232 | 33977 ft | 485 kts | 272° |
| 2026-05-04 00:06 | 41.88280 | 97.09173 | 33970 ft | 485 kts | 272° |
| 2026-05-04 00:07 | 41.88184 | 97.00111 | 33972 ft | 485 kts | 271° |
| 2026-05-04 00:07 | 41.88082 | 96.91116 | 33963 ft | 486 kts | 271° |
| 2026-05-04 00:08 | 41.87971 | 96.82043 | 33952 ft | 486 kts | 271° |
| 2026-05-04 00:08 | 41.87853 | 96.72990 | 33960 ft | 485 kts | 271° |
| 2026-05-04 00:09 | 41.87729 | 96.63938 | 33950 ft | 485 kts | 271° |
| 2026-05-04 00:09 | 41.87598 | 96.54901 | 33952 ft | 484 kts | 271° |
| 2026-05-04 00:10 | 41.87460 | 96.45871 | 33941 ft | 484 kts | 271° |
| 2026-05-04 00:10 | 41.87315 | 96.36854 | 33954 ft | 483 kts | 271° |
| 2026-05-04 00:11 | 41.87164 | 96.27835 | 33955 ft | 483 kts | 271° |
| 2026-05-04 00:11 | 41.87040 | 96.18830 | 33953 ft | 482 kts | 272° |
| 2026-05-04 00:12 | 41.87006 | 96.09887 | 33952 ft | 482 kts | 272° |
| 2026-05-04 00:12 | 41.86974 | 96.00885 | 33954 ft | 481 kts | 272° |
| 2026-05-04 00:13 | 41.86922 | 95.91899 | 33951 ft | 481 kts | 272° |
| 2026-05-04 00:13 | 41.86856 | 95.82915 | 33951 ft | 480 kts | 272° |
| 2026-05-04 00:14 | 41.86783 | 95.73954 | 33955 ft | 480 kts | 272° |
| 2026-05-04 00:14 | 41.86704 | 95.65053 | 33948 ft | 480 kts | 272° |
| 2026-05-04 00:15 | 41.86618 | 95.56096 | 33950 ft | 480 kts | 272° |
| 2026-05-04 00:15 | 41.86525 | 95.47146 | 33939 ft | 479 kts | 272° |
| 2026-05-04 00:16 | 41.86425 | 95.38197 | 33945 ft | 479 kts | 272° |
| 2026-05-04 00:16 | 41.86320 | 95.29268 | 33932 ft | 478 kts | 272° |
| 2026-05-04 00:17 | 41.87258 | 95.20612 | 33964 ft | 467 kts | 292° |
| 2026-05-04 00:17 | 41.90454 | 95.13081 | 33926 ft | 463 kts | 311° |
| 2026-05-04 00:18 | 41.94752 | 95.06681 | 33935 ft | 465 kts | 312° |
| 2026-05-04 00:18 | 41.99086 | 95.00187 | 33936 ft | 468 kts | 311° |
| 2026-05-04 00:19 | 42.03402 | 94.93618 | 33922 ft | 469 kts | 311° |
| 2026-05-04 00:19 | 42.07708 | 94.87007 | 33919 ft | 469 kts | 311° |
| 2026-05-04 00:20 | 42.11996 | 94.80401 | 33925 ft | 468 kts | 310° |
| 2026-05-04 00:20 | 42.16277 | 94.73792 | 33925 ft | 468 kts | 310° |
| 2026-05-04 00:21 | 42.20525 | 94.67224 | 33915 ft | 467 kts | 310° |
| 2026-05-04 00:21 | 42.24792 | 94.60611 | 33915 ft | 467 kts | 310° |
| 2026-05-04 00:22 | 42.29048 | 94.54001 | 33923 ft | 466 kts | 310° |
| 2026-05-04 00:22 | 42.33295 | 94.47391 | 33915 ft | 465 kts | 310° |
| 2026-05-04 00:23 | 42.37531 | 94.40782 | 33906 ft | 465 kts | 310° |
| 2026-05-04 00:23 | 42.41759 | 94.34169 | 33909 ft | 464 kts | 310° |
| 2026-05-04 00:24 | 42.45983 | 94.27550 | 33906 ft | 464 kts | 310° |
| 2026-05-04 00:24 | 42.50203 | 94.20922 | 33909 ft | 464 kts | 310° |
| 2026-05-04 00:25 | 42.54421 | 94.14281 | 33922 ft | 465 kts | 309° |
| 2026-05-04 00:25 | 42.58638 | 94.07628 | 33905 ft | 465 kts | 309° |
| 2026-05-04 00:26 | 42.62855 | 94.00958 | 33907 ft | 466 kts | 309° |
| 2026-05-04 00:26 | 42.67049 | 93.94309 | 33898 ft | 466 kts | 309° |
| 2026-05-04 00:27 | 42.71274 | 93.87597 | 33901 ft | 466 kts | 309° |
| 2026-05-04 00:27 | 42.75490 | 93.80883 | 33902 ft | 467 kts | 309° |
| 2026-05-04 00:28 | 42.79708 | 93.74152 | 33897 ft | 467 kts | 309° |
| 2026-05-04 00:28 | 42.83484 | 93.66991 | 33906 ft | 465 kts | 298° |
| 2026-05-04 00:29 | 42.86304 | 93.59079 | 33904 ft | 465 kts | 290° |
| 2026-05-04 00:29 | 42.88396 | 93.50754 | 33906 ft | 464 kts | 288° |
| 2026-05-04 00:30 | 42.90436 | 93.42385 | 33909 ft | 465 kts | 288° |
| 2026-05-04 00:30 | 42.92480 | 93.34069 | 33903 ft | 465 kts | 289° |
| 2026-05-04 00:31 | 42.94548 | 93.25708 | 33902 ft | 465 kts | 289° |
| 2026-05-04 00:31 | 42.96615 | 93.17346 | 33898 ft | 465 kts | 289° |
| 2026-05-04 00:32 | 42.98676 | 93.08975 | 33926 ft | 465 kts | 288° |
| 2026-05-04 00:32 | 43.00730 | 93.00601 | 33911 ft | 465 kts | 288° |
| 2026-05-04 00:33 | 43.03794 | 92.88051 | 33897 ft | 464 kts | 288° |
| 2026-05-04 00:34 | 43.05829 | 92.79674 | 33903 ft | 463 kts | 288° |
| 2026-05-04 00:34 | 43.07853 | 92.71314 | 33894 ft | 463 kts | 288° |
| 2026-05-04 00:35 | 43.09871 | 92.62947 | 33892 ft | 462 kts | 288° |
| 2026-05-04 00:35 | 43.11876 | 92.54606 | 33885 ft | 461 kts | 288° |
| 2026-05-04 00:36 | 43.13859 | 92.46327 | 33885 ft | 460 kts | 288° |
| 2026-05-04 00:36 | 43.15851 | 92.37975 | 33886 ft | 459 kts | 288° |
| 2026-05-04 00:37 | 43.17496 | 92.31055 | 33906 ft | 459 kts | 288° |
| 2026-05-04 00:37 | 43.19467 | 92.22740 | 33903 ft | 458 kts | 288° |
| 2026-05-04 00:38 | 43.21431 | 92.14421 | 33892 ft | 458 kts | 288° |
| 2026-05-04 00:38 | 43.23368 | 92.06182 | 33897 ft | 457 kts | 288° |
| 2026-05-04 00:39 | 43.25312 | 91.97889 | 33901 ft | 456 kts | 288° |
| 2026-05-04 00:39 | 43.27250 | 91.89588 | 33896 ft | 456 kts | 288° |
| 2026-05-04 00:40 | 43.29178 | 91.81302 | 33896 ft | 455 kts | 288° |
| 2026-05-04 00:40 | 43.31096 | 91.73021 | 33893 ft | 454 kts | 287° |
| 2026-05-04 00:41 | 43.33005 | 91.64753 | 33894 ft | 454 kts | 287° |
| 2026-05-04 00:41 | 43.34903 | 91.56479 | 33913 ft | 453 kts | 287° |
| 2026-05-04 00:42 | 43.36790 | 91.48221 | 33926 ft | 453 kts | 287° |
| 2026-05-04 00:42 | 43.38668 | 91.40021 | 33906 ft | 452 kts | 287° |
| 2026-05-04 00:43 | 43.40547 | 91.31759 | 33924 ft | 451 kts | 287° |
| 2026-05-04 00:43 | 43.42401 | 91.23519 | 33935 ft | 450 kts | 287° |
| 2026-05-04 00:44 | 43.44248 | 91.15272 | 33955 ft | 452 kts | 287° |
| 2026-05-04 00:44 | 43.46104 | 91.06974 | 33969 ft | 453 kts | 287° |
| 2026-05-04 00:45 | 43.47941 | 90.98719 | 33952 ft | 453 kts | 287° |
| 2026-05-04 00:45 | 43.49781 | 90.90426 | 33966 ft | 452 kts | 287° |
| 2026-05-04 00:46 | 43.51613 | 90.82143 | 33993 ft | 451 kts | 287° |
| 2026-05-04 00:46 | 43.53439 | 90.73859 | 33988 ft | 451 kts | 287° |
| 2026-05-04 00:47 | 43.55250 | 90.65601 | 34000 ft | 449 kts | 286° |
| 2026-05-04 00:47 | 43.57040 | 90.57411 | 34008 ft | 448 kts | 286° |
| 2026-05-04 00:48 | 43.58832 | 90.49180 | 34008 ft | 448 kts | 286° |
| 2026-05-04 00:48 | 43.60619 | 90.40938 | 34027 ft | 447 kts | 286° |
| 2026-05-04 00:49 | 43.62398 | 90.32710 | 34040 ft | 447 kts | 286° |
| 2026-05-04 00:49 | 43.64164 | 90.24506 | 34039 ft | 449 kts | 286° |
| 2026-05-04 00:50 | 43.65942 | 90.16217 | 34034 ft | 449 kts | 286° |
| 2026-05-04 00:50 | 43.67712 | 90.07931 | 34047 ft | 449 kts | 286° |
| 2026-05-04 00:51 | 43.69545 | 89.99733 | 34054 ft | 449 kts | 287° |
| 2026-05-04 00:51 | 43.71438 | 89.91497 | 34031 ft | 449 kts | 287° |
| 2026-05-04 00:52 | 43.73317 | 89.83243 | 34037 ft | 449 kts | 286° |
| 2026-05-04 00:52 | 43.75182 | 89.74981 | 34025 ft | 450 kts | 286° |
| 2026-05-04 00:53 | 43.77038 | 89.66723 | 34030 ft | 450 kts | 286° |
| 2026-05-04 00:53 | 43.78890 | 89.58458 | 34018 ft | 450 kts | 286° |
| 2026-05-04 00:54 | 43.80728 | 89.50230 | 34028 ft | 450 kts | 287° |
| 2026-05-04 00:54 | 43.82633 | 89.41988 | 34042 ft | 449 kts | 287° |
| 2026-05-04 00:55 | 43.84559 | 89.33745 | 34020 ft | 450 kts | 287° |
| 2026-05-04 00:55 | 43.86474 | 89.25494 | 34022 ft | 449 kts | 287° |
| 2026-05-04 00:56 | 43.88377 | 89.17238 | 34033 ft | 449 kts | 286° |
| 2026-05-04 00:56 | 43.90270 | 89.08985 | 34030 ft | 449 kts | 286° |
| 2026-05-04 00:57 | 43.92163 | 89.00707 | 34029 ft | 449 kts | 286° |
| 2026-05-04 00:57 | 43.94049 | 88.92435 | 34043 ft | 450 kts | 286° |
| 2026-05-04 00:58 | 43.95929 | 88.84155 | 34037 ft | 450 kts | 286° |
| 2026-05-04 00:58 | 43.97859 | 88.75940 | 34060 ft | 451 kts | 287° |
| 2026-05-04 00:59 | 43.99968 | 88.67713 | 34037 ft | 452 kts | 288° |
| 2026-05-04 00:59 | 44.02079 | 88.59477 | 34066 ft | 453 kts | 288° |
| 2026-05-04 01:00 | 44.04166 | 88.51217 | 34050 ft | 453 kts | 287° |
| 2026-05-04 01:00 | 44.06240 | 88.42940 | 34028 ft | 453 kts | 287° |
| 2026-05-04 01:01 | 44.08291 | 88.34716 | 34033 ft | 452 kts | 287° |
| 2026-05-04 01:01 | 44.10349 | 88.26445 | 34036 ft | 453 kts | 287° |
| 2026-05-04 01:02 | 44.12402 | 88.18164 | 34036 ft | 453 kts | 287° |
| 2026-05-04 01:02 | 44.14450 | 88.09882 | 34022 ft | 452 kts | 287° |
| 2026-05-04 01:03 | 44.16645 | 88.01660 | 34008 ft | 455 kts | 292° |
| 2026-05-04 01:03 | 44.19705 | 87.93901 | 34012 ft | 459 kts | 299° |
| 2026-05-04 01:04 | 44.23477 | 87.86744 | 34006 ft | 462 kts | 303° |
| 2026-05-04 01:04 | 44.27384 | 87.79634 | 33998 ft | 462 kts | 303° |
| 2026-05-04 01:05 | 44.31259 | 87.72478 | 33998 ft | 461 kts | 303° |
| 2026-05-04 01:05 | 44.35131 | 87.65310 | 33996 ft | 462 kts | 303° |
| 2026-05-04 01:06 | 44.39055 | 87.58184 | 33997 ft | 462 kts | 303° |
| 2026-05-04 01:06 | 44.42966 | 87.51086 | 33998 ft | 463 kts | 303° |
| 2026-05-04 01:07 | 44.46890 | 87.43927 | 33992 ft | 462 kts | 303° |
| 2026-05-04 01:07 | 44.50802 | 87.36767 | 33988 ft | 462 kts | 303° |
| 2026-05-04 01:08 | 44.54707 | 87.29603 | 33981 ft | 462 kts | 303° |
| 2026-05-04 01:08 | 44.58710 | 87.22527 | 34010 ft | 464 kts | 305° |
| 2026-05-04 01:09 | 44.62786 | 87.15575 | 33995 ft | 464 kts | 305° |
| 2026-05-04 01:09 | 44.66876 | 87.08536 | 33990 ft | 464 kts | 304° |
| 2026-05-04 01:10 | 44.70940 | 87.01487 | 33990 ft | 464 kts | 304° |
| 2026-05-04 01:10 | 44.74998 | 86.94435 | 33979 ft | 464 kts | 304° |
| 2026-05-04 01:11 | 44.79061 | 86.87378 | 33998 ft | 464 kts | 304° |
| 2026-05-04 01:11 | 44.83126 | 86.80300 | 33990 ft | 465 kts | 304° |
| 2026-05-04 01:12 | 44.87156 | 86.73177 | 33988 ft | 465 kts | 304° |
| 2026-05-04 01:12 | 44.91139 | 86.66049 | 33985 ft | 465 kts | 304° |
| 2026-05-04 01:13 | 44.95146 | 86.58872 | 33995 ft | 465 kts | 304° |
| 2026-05-04 01:13 | 44.99150 | 86.51695 | 33986 ft | 465 kts | 304° |
| 2026-05-04 01:14 | 45.03158 | 86.44499 | 33990 ft | 466 kts | 304° |
| 2026-05-04 01:14 | 45.07163 | 86.37290 | 33990 ft | 466 kts | 303° |
| 2026-05-04 01:15 | 45.11173 | 86.30054 | 33993 ft | 466 kts | 303° |
| 2026-05-04 01:15 | 45.15147 | 86.22863 | 33991 ft | 466 kts | 303° |
| 2026-05-04 01:16 | 45.19144 | 86.15612 | 33990 ft | 466 kts | 303° |
| 2026-05-04 01:16 | 45.23139 | 86.08348 | 33983 ft | 467 kts | 303° |
| 2026-05-04 01:17 | 45.27133 | 86.01066 | 33991 ft | 467 kts | 303° |
| 2026-05-04 01:17 | 45.31095 | 85.93824 | 33983 ft | 467 kts | 303° |
| 2026-05-04 01:18 | 45.35084 | 85.86513 | 33990 ft | 468 kts | 303° |
| 2026-05-04 01:18 | 45.39073 | 85.79184 | 33984 ft | 468 kts | 303° |
| 2026-05-04 01:19 | 45.43054 | 85.71852 | 33989 ft | 468 kts | 303° |
| 2026-05-04 01:19 | 45.47030 | 85.64508 | 33983 ft | 468 kts | 303° |
| 2026-05-04 01:20 | 45.50977 | 85.57201 | 33993 ft | 468 kts | 303° |
| 2026-05-04 01:20 | 45.54944 | 85.49838 | 33980 ft | 468 kts | 303° |
| 2026-05-04 01:21 | 45.58901 | 85.42473 | 33980 ft | 467 kts | 303° |
| 2026-05-04 01:21 | 45.62852 | 85.35102 | 33981 ft | 467 kts | 303° |
| 2026-05-04 01:22 | 45.66801 | 85.27720 | 33978 ft | 467 kts | 303° |
| 2026-05-04 01:22 | 45.70746 | 85.20321 | 33994 ft | 468 kts | 303° |
| 2026-05-04 01:23 | 45.74677 | 85.12969 | 33994 ft | 468 kts | 303° |
| 2026-05-04 01:23 | 45.78634 | 85.05567 | 33992 ft | 468 kts | 303° |
| 2026-05-04 01:24 | 45.82589 | 84.98147 | 33997 ft | 467 kts | 303° |
| 2026-05-04 01:24 | 45.85870 | 84.91975 | 34022 ft | 467 kts | 303° |
| 2026-05-04 01:25 | 45.89808 | 84.84549 | 34004 ft | 468 kts | 303° |
| 2026-05-04 01:25 | 45.93743 | 84.77108 | 34016 ft | 468 kts | 303° |
| 2026-05-04 01:26 | 45.97685 | 84.69635 | 34022 ft | 469 kts | 303° |
| 2026-05-04 01:26 | 46.01597 | 84.62197 | 34020 ft | 469 kts | 303° |
| 2026-05-04 01:27 | 46.05534 | 84.54695 | 34040 ft | 469 kts | 303° |
| 2026-05-04 01:27 | 46.09465 | 84.47182 | 34037 ft | 470 kts | 303° |
| 2026-05-04 01:28 | 46.13396 | 84.39651 | 34047 ft | 470 kts | 303° |
| 2026-05-04 01:28 | 46.17322 | 84.32108 | 34054 ft | 471 kts | 303° |
| 2026-05-04 01:29 | 46.21255 | 84.24534 | 34061 ft | 471 kts | 303° |
| 2026-05-04 01:29 | 46.25188 | 84.16942 | 34073 ft | 472 kts | 303° |
| 2026-05-04 01:30 | 46.29091 | 84.09360 | 34075 ft | 473 kts | 303° |
| 2026-05-04 01:30 | 46.33012 | 84.01685 | 34087 ft | 474 kts | 303° |
| 2026-05-04 01:31 | 46.36934 | 83.93992 | 34079 ft | 475 kts | 303° |
| 2026-05-04 01:31 | 46.40858 | 83.86282 | 34089 ft | 476 kts | 303° |
| 2026-05-04 01:32 | 46.44793 | 83.78531 | 34085 ft | 477 kts | 303° |
| 2026-05-04 01:32 | 46.48704 | 83.70807 | 34080 ft | 478 kts | 303° |
| 2026-05-04 01:33 | 46.52642 | 83.63009 | 34081 ft | 478 kts | 303° |
| 2026-05-04 01:33 | 46.56570 | 83.55208 | 34084 ft | 478 kts | 303° |
| 2026-05-04 01:34 | 46.60499 | 83.47385 | 34095 ft | 479 kts | 303° |
| 2026-05-04 01:34 | 46.64408 | 83.39581 | 34094 ft | 480 kts | 303° |
| 2026-05-04 01:35 | 46.68153 | 83.31538 | 34086 ft | 479 kts | 299° |
| 2026-05-04 01:35 | 46.71679 | 83.23308 | 34089 ft | 479 kts | 299° |
| 2026-05-04 01:36 | 46.75210 | 83.15066 | 34087 ft | 479 kts | 299° |
| 2026-05-04 01:36 | 46.78766 | 83.06816 | 34105 ft | 480 kts | 299° |
| 2026-05-04 01:37 | 46.82316 | 82.98566 | 34101 ft | 480 kts | 299° |
| 2026-05-04 01:37 | 46.85442 | 82.90089 | 34088 ft | 476 kts | 289° |
| 2026-05-04 01:38 | 46.87375 | 82.80888 | 34042 ft | 474 kts | 279° |
| 2026-05-04 01:38 | 46.88362 | 82.71373 | 34009 ft | 472 kts | 276° |
| 2026-05-04 01:39 | 46.89276 | 82.61858 | 33993 ft | 472 kts | 277° |
| 2026-05-04 01:39 | 46.90219 | 82.52345 | 34010 ft | 472 kts | 277° |
| 2026-05-04 01:40 | 46.91175 | 82.42842 | 34002 ft | 472 kts | 277° |
| 2026-05-04 01:40 | 46.92121 | 82.33398 | 34003 ft | 472 kts | 277° |
| 2026-05-04 01:41 | 46.93062 | 82.23900 | 33999 ft | 472 kts | 277° |
| 2026-05-04 01:41 | 46.93997 | 82.14384 | 33999 ft | 472 kts | 276° |
| 2026-05-04 01:42 | 46.94924 | 82.04859 | 34001 ft | 473 kts | 276° |
| 2026-05-04 01:42 | 46.95846 | 81.95326 | 33997 ft | 473 kts | 276° |
| 2026-05-04 01:43 | 46.96743 | 81.85829 | 33995 ft | 473 kts | 276° |
| 2026-05-04 01:43 | 46.97623 | 81.76283 | 34002 ft | 473 kts | 276° |
| 2026-05-04 01:44 | 46.98498 | 81.66726 | 33999 ft | 473 kts | 276° |
| 2026-05-04 01:44 | 46.99369 | 81.57175 | 34006 ft | 473 kts | 276° |
| 2026-05-04 01:45 | 47.00232 | 81.47626 | 34002 ft | 473 kts | 276° |
| 2026-05-04 01:45 | 47.01511 | 81.33299 | 34000 ft | 472 kts | 276° |
| 2026-05-04 01:46 | 47.02353 | 81.23763 | 34010 ft | 472 kts | 276° |
| 2026-05-04 01:46 | 47.03188 | 81.14216 | 34010 ft | 472 kts | 276° |
| 2026-05-04 01:47 | 47.04017 | 81.04663 | 34024 ft | 472 kts | 276° |
| 2026-05-04 01:47 | 47.04835 | 80.95095 | 34020 ft | 472 kts | 276° |
| 2026-05-04 01:48 | 47.05638 | 80.85588 | 34023 ft | 472 kts | 276° |
| 2026-05-04 01:48 | 47.06441 | 80.76038 | 34026 ft | 472 kts | 276° |
| 2026-05-04 01:49 | 47.07237 | 80.66482 | 34021 ft | 471 kts | 276° |
| 2026-05-04 01:49 | 47.08024 | 80.56941 | 34044 ft | 471 kts | 276° |
| 2026-05-04 01:50 | 47.08800 | 80.47443 | 34037 ft | 471 kts | 276° |
| 2026-05-04 01:50 | 47.09572 | 80.37886 | 34052 ft | 471 kts | 276° |
| 2026-05-04 01:51 | 47.10337 | 80.28318 | 34054 ft | 471 kts | 276° |
| 2026-05-04 01:51 | 47.11094 | 80.18752 | 34069 ft | 471 kts | 276° |
| 2026-05-04 01:52 | 47.11843 | 80.09188 | 34066 ft | 471 kts | 275° |
| 2026-05-04 01:52 | 47.12585 | 79.99620 | 34086 ft | 471 kts | 275° |
| 2026-05-04 01:53 | 47.13314 | 79.90126 | 34095 ft | 471 kts | 275° |
| 2026-05-04 01:53 | 47.14040 | 79.80576 | 34108 ft | 470 kts | 275° |
| 2026-05-04 01:54 | 47.14766 | 79.71032 | 34105 ft | 470 kts | 275° |
| 2026-05-04 01:54 | 47.15487 | 79.61494 | 34106 ft | 469 kts | 275° |
| 2026-05-04 01:55 | 47.16200 | 79.51966 | 34115 ft | 468 kts | 275° |
| 2026-05-04 01:55 | 47.16902 | 79.42467 | 34117 ft | 467 kts | 275° |
| 2026-05-04 01:56 | 47.17591 | 79.33042 | 34125 ft | 466 kts | 275° |
| 2026-05-04 01:56 | 47.18278 | 79.23561 | 34124 ft | 466 kts | 275° |
| 2026-05-04 01:57 | 47.18954 | 79.14093 | 34131 ft | 465 kts | 275° |
| 2026-05-04 01:57 | 47.19609 | 79.04624 | 34128 ft | 465 kts | 275° |
| 2026-05-04 01:58 | 47.20251 | 78.95185 | 34137 ft | 464 kts | 275° |
| 2026-05-04 01:58 | 47.20890 | 78.85730 | 34139 ft | 464 kts | 275° |
| 2026-05-04 01:59 | 47.21522 | 78.76296 | 34141 ft | 463 kts | 275° |
| 2026-05-04 01:59 | 47.22143 | 78.66915 | 34142 ft | 462 kts | 275° |
| 2026-05-04 02:00 | 47.22757 | 78.57514 | 34140 ft | 461 kts | 275° |
| 2026-05-04 02:00 | 47.23364 | 78.48116 | 34157 ft | 461 kts | 274° |
| 2026-05-04 02:01 | 47.23962 | 78.38722 | 34144 ft | 461 kts | 274° |
| 2026-05-04 02:01 | 47.24551 | 78.29339 | 34153 ft | 460 kts | 274° |
| 2026-05-04 02:02 | 47.25132 | 78.19964 | 34146 ft | 460 kts | 274° |
| 2026-05-04 02:02 | 47.25706 | 78.10593 | 34152 ft | 459 kts | 274° |
| 2026-05-04 02:03 | 47.26271 | 78.01234 | 34152 ft | 459 kts | 274° |
| 2026-05-04 02:03 | 47.26828 | 77.91874 | 34159 ft | 459 kts | 274° |
| 2026-05-04 02:04 | 47.27374 | 77.82576 | 34156 ft | 459 kts | 274° |
| 2026-05-04 02:04 | 47.27916 | 77.73209 | 34162 ft | 459 kts | 274° |
| 2026-05-04 02:05 | 47.28450 | 77.63846 | 34159 ft | 459 kts | 274° |
| 2026-05-04 02:05 | 47.28977 | 77.54480 | 34162 ft | 459 kts | 274° |
| 2026-05-04 02:06 | 47.29497 | 77.45103 | 34172 ft | 459 kts | 274° |
| 2026-05-04 02:06 | 47.30009 | 77.35736 | 34171 ft | 459 kts | 274° |
| 2026-05-04 02:07 | 47.30515 | 77.26357 | 34191 ft | 459 kts | 274° |
| 2026-05-04 02:07 | 47.31014 | 77.16988 | 34175 ft | 459 kts | 274° |
| 2026-05-04 02:08 | 47.31504 | 77.07614 | 34175 ft | 458 kts | 274° |
| 2026-05-04 02:08 | 47.32319 | 76.98302 | 34189 ft | 458 kts | 277° |
| 2026-05-04 02:09 | 47.33278 | 76.89018 | 34182 ft | 458 kts | 277° |
| 2026-05-04 02:09 | 47.34225 | 76.79784 | 34185 ft | 458 kts | 277° |
| 2026-05-04 02:10 | 47.35160 | 76.70487 | 34181 ft | 458 kts | 277° |
| 2026-05-04 02:10 | 47.35929 | 76.62753 | 34186 ft | 458 kts | 277° |
| 2026-05-04 02:11 | 47.36847 | 76.53425 | 34183 ft | 459 kts | 277° |
| 2026-05-04 02:11 | 47.37757 | 76.44107 | 34187 ft | 459 kts | 277° |
| 2026-05-04 02:12 | 47.38660 | 76.34777 | 34188 ft | 459 kts | 277° |
| 2026-05-04 02:12 | 47.39556 | 76.25438 | 34186 ft | 459 kts | 277° |
| 2026-05-04 02:13 | 47.40446 | 76.16089 | 34201 ft | 460 kts | 276° |
| 2026-05-04 02:13 | 47.41322 | 76.06786 | 34189 ft | 461 kts | 276° |
| 2026-05-04 02:14 | 47.42200 | 75.97386 | 34192 ft | 462 kts | 276° |
| 2026-05-04 02:14 | 47.43072 | 75.87971 | 34198 ft | 463 kts | 276° |
| 2026-05-04 02:15 | 47.43937 | 75.78542 | 34203 ft | 463 kts | 276° |
| 2026-05-04 02:15 | 47.44795 | 75.69100 | 34204 ft | 464 kts | 276° |
| 2026-05-04 02:16 | 47.45644 | 75.59669 | 34201 ft | 465 kts | 275° |
| 2026-05-04 02:16 | 47.46490 | 75.50188 | 34208 ft | 466 kts | 275° |
| 2026-05-04 02:17 | 47.47329 | 75.40683 | 34209 ft | 466 kts | 275° |
| 2026-05-04 02:17 | 47.48162 | 75.31164 | 34214 ft | 467 kts | 275° |
| 2026-05-04 02:18 | 47.48987 | 75.21638 | 34206 ft | 468 kts | 275° |
| 2026-05-04 02:18 | 47.49802 | 75.12139 | 34215 ft | 469 kts | 275° |
| 2026-05-04 02:19 | 47.50617 | 75.02541 | 34214 ft | 471 kts | 275° |
| 2026-05-04 02:19 | 47.51426 | 74.92918 | 34216 ft | 472 kts | 275° |
| 2026-05-04 02:20 | 47.52229 | 74.83262 | 34215 ft | 472 kts | 275° |
| 2026-05-04 02:20 | 47.53024 | 74.73604 | 34212 ft | 473 kts | 275° |
| 2026-05-04 02:21 | 47.53811 | 74.63935 | 34220 ft | 474 kts | 275° |
| 2026-05-04 02:21 | 47.54592 | 74.54248 | 34213 ft | 474 kts | 275° |
| 2026-05-04 02:22 | 47.55365 | 74.44552 | 34215 ft | 474 kts | 275° |
| 2026-05-04 02:22 | 47.56130 | 74.34853 | 34204 ft | 474 kts | 275° |
| 2026-05-04 02:23 | 47.56887 | 74.25145 | 34230 ft | 475 kts | 276° |
| 2026-05-04 02:23 | 47.57637 | 74.15420 | 34217 ft | 475 kts | 276° |
| 2026-05-04 02:24 | 47.58380 | 74.05681 | 34211 ft | 476 kts | 276° |
| 2026-05-04 02:24 | 47.59109 | 73.96010 | 34213 ft | 476 kts | 276° |
| 2026-05-04 02:25 | 47.59836 | 73.86258 | 34202 ft | 476 kts | 276° |
| 2026-05-04 02:25 | 47.60555 | 73.76499 | 34210 ft | 477 kts | 276° |
| 2026-05-04 02:26 | 47.61267 | 73.66720 | 34210 ft | 477 kts | 275° |
| 2026-05-04 02:26 | 47.61971 | 73.56930 | 34205 ft | 478 kts | 275° |
| 2026-05-04 02:27 | 47.62663 | 73.47185 | 34209 ft | 478 kts | 275° |
| 2026-05-04 02:27 | 47.63351 | 73.37383 | 34204 ft | 478 kts | 275° |
| 2026-05-04 02:28 | 47.64032 | 73.27569 | 34224 ft | 479 kts | 275° |
| 2026-05-04 02:28 | 47.64705 | 73.17737 | 34207 ft | 478 kts | 275° |
| 2026-05-04 02:29 | 47.65367 | 73.07933 | 34204 ft | 477 kts | 275° |
| 2026-05-04 02:29 | 47.66017 | 72.98201 | 34211 ft | 476 kts | 275° |
| 2026-05-04 02:30 | 47.66661 | 72.88417 | 34199 ft | 476 kts | 275° |
| 2026-05-04 02:30 | 47.67296 | 72.78641 | 34207 ft | 476 kts | 275° |
| 2026-05-04 02:31 | 47.67925 | 72.68843 | 34204 ft | 477 kts | 275° |
| 2026-05-04 02:31 | 47.68545 | 72.59041 | 34201 ft | 477 kts | 275° |
| 2026-05-04 02:32 | 47.69158 | 72.49214 | 34203 ft | 478 kts | 275° |
| 2026-05-04 02:32 | 47.69763 | 72.39385 | 34195 ft | 478 kts | 275° |
| 2026-05-04 02:33 | 47.70356 | 72.29623 | 34199 ft | 478 kts | 275° |
| 2026-05-04 02:33 | 47.70944 | 72.19794 | 34436 ft | 477 kts | 275° |
| 2026-05-04 02:34 | 47.71233 | 72.14906 | 34698 ft | 475 kts | 275° |
| 2026-05-04 02:34 | 47.71520 | 72.10024 | 34973 ft | 472 kts | 275° |
| 2026-05-04 02:34 | 47.71802 | 72.05199 | 35429 ft | 465 kts | 275° |
| 2026-05-04 02:34 | 47.72078 | 72.00440 | 35900 ft | 460 kts | 275° |
| 2026-05-04 02:35 | 47.72350 | 71.95723 | 36225 ft | 458 kts | 275° |
| 2026-05-04 02:35 | 47.72622 | 71.90988 | 36194 ft | 462 kts | 274° |
| 2026-05-04 02:35 | 47.73156 | 71.81493 | 36204 ft | 467 kts | 274° |
| 2026-05-04 02:36 | 47.73587 | 71.71809 | 36201 ft | 472 kts | 273° |
| 2026-05-04 02:36 | 47.73966 | 71.62039 | 36190 ft | 475 kts | 273° |
| 2026-05-04 02:37 | 47.74352 | 71.52225 | 36188 ft | 477 kts | 273° |
| 2026-05-04 02:37 | 47.74744 | 71.42377 | 36193 ft | 478 kts | 273° |
| 2026-05-04 02:38 | 47.75127 | 71.32589 | 36205 ft | 478 kts | 273° |
| 2026-05-04 02:38 | 47.75506 | 71.22707 | 36201 ft | 478 kts | 273° |
| 2026-05-04 02:39 | 47.75874 | 71.12859 | 36191 ft | 477 kts | 273° |
| 2026-05-04 02:39 | 47.76233 | 71.03015 | 36208 ft | 477 kts | 273° |
| 2026-05-04 02:40 | 47.76585 | 70.93176 | 36194 ft | 476 kts | 273° |
| 2026-05-04 02:40 | 47.76927 | 70.83349 | 36202 ft | 476 kts | 273° |
| 2026-05-04 02:41 | 47.77265 | 70.73495 | 36202 ft | 476 kts | 273° |
| 2026-05-04 02:41 | 47.77590 | 70.63712 | 36198 ft | 476 kts | 273° |
| 2026-05-04 02:42 | 47.77903 | 70.53846 | 36199 ft | 477 kts | 272° |
| 2026-05-04 02:42 | 47.78207 | 70.43973 | 36199 ft | 478 kts | 272° |
| 2026-05-04 02:43 | 47.78506 | 70.34165 | 36196 ft | 478 kts | 272° |
| 2026-05-04 02:43 | 47.78800 | 70.24269 | 36193 ft | 479 kts | 272° |
| 2026-05-04 02:44 | 47.79085 | 70.14366 | 36205 ft | 479 kts | 272° |
| 2026-05-04 02:44 | 47.79364 | 70.04413 | 36199 ft | 481 kts | 272° |
| 2026-05-04 02:45 | 47.79632 | 69.94533 | 36199 ft | 481 kts | 272° |
| 2026-05-04 02:45 | 47.79893 | 69.84574 | 36197 ft | 482 kts | 272° |
| 2026-05-04 02:46 | 47.80146 | 69.74597 | 36196 ft | 482 kts | 272° |
| 2026-05-04 02:46 | 47.80391 | 69.64609 | 36206 ft | 483 kts | 272° |
| 2026-05-04 02:47 | 47.80627 | 69.54628 | 36203 ft | 483 kts | 272° |
| 2026-05-04 02:47 | 47.80854 | 69.44643 | 36208 ft | 483 kts | 272° |
| 2026-05-04 02:48 | 47.81073 | 69.34654 | 36204 ft | 483 kts | 272° |
| 2026-05-04 02:48 | 47.81282 | 69.24735 | 36206 ft | 483 kts | 273° |
| 2026-05-04 02:49 | 47.81484 | 69.14745 | 36210 ft | 482 kts | 273° |
| 2026-05-04 02:49 | 47.81678 | 69.04761 | 36216 ft | 482 kts | 273° |
| 2026-05-04 02:50 | 47.81865 | 68.94798 | 36201 ft | 481 kts | 273° |
| 2026-05-04 02:50 | 47.82039 | 68.84861 | 36201 ft | 480 kts | 272° |
| 2026-05-04 02:51 | 47.81583 | 68.74995 | 36206 ft | 481 kts | 264° |
| 2026-05-04 02:51 | 47.80626 | 68.65141 | 36205 ft | 480 kts | 264° |
| 2026-05-04 02:52 | 47.79683 | 68.55303 | 36208 ft | 480 kts | 264° |
| 2026-05-04 02:52 | 47.78765 | 68.45481 | 36205 ft | 480 kts | 264° |
| 2026-05-04 02:53 | 47.77847 | 68.35663 | 36209 ft | 479 kts | 264° |
| 2026-05-04 02:53 | 47.76921 | 68.25853 | 36206 ft | 479 kts | 264° |
| 2026-05-04 02:54 | 47.75985 | 68.16048 | 36200 ft | 478 kts | 264° |
| 2026-05-04 02:54 | 47.75047 | 68.06316 | 36197 ft | 478 kts | 264° |
| 2026-05-04 02:55 | 47.73619 | 67.91637 | 36188 ft | 478 kts | 264° |
| 2026-05-04 02:56 | 47.72657 | 67.81849 | 36185 ft | 479 kts | 264° |
| 2026-05-04 02:56 | 47.71545 | 67.72087 | 36183 ft | 480 kts | 261° |
| 2026-05-04 02:57 | 47.70099 | 67.62412 | 36185 ft | 480 kts | 260° |
| 2026-05-04 02:57 | 47.68626 | 67.52740 | 36187 ft | 480 kts | 260° |
| 2026-05-04 02:58 | 47.67179 | 67.43129 | 36208 ft | 480 kts | 260° |
| 2026-05-04 02:58 | 47.65725 | 67.33450 | 36212 ft | 480 kts | 260° |
| 2026-05-04 02:59 | 47.64265 | 67.23775 | 36207 ft | 480 kts | 260° |
| 2026-05-04 02:59 | 47.62796 | 67.14108 | 36204 ft | 480 kts | 259° |
| 2026-05-04 03:00 | 47.61571 | 67.06091 | 36204 ft | 480 kts | 259° |
| 2026-05-04 03:00 | 47.60086 | 66.96432 | 36214 ft | 480 kts | 259° |
| 2026-05-04 03:01 | 47.58594 | 66.86776 | 36201 ft | 480 kts | 259° |
| 2026-05-04 03:01 | 47.57098 | 66.77131 | 36206 ft | 480 kts | 259° |
| 2026-05-04 03:02 | 47.55577 | 66.67513 | 36199 ft | 480 kts | 258° |
| 2026-05-04 03:02 | 47.53989 | 66.57919 | 36203 ft | 479 kts | 258° |
| 2026-05-04 03:03 | 47.52402 | 66.48410 | 36194 ft | 479 kts | 258° |
| 2026-05-04 03:03 | 47.50808 | 66.38846 | 36189 ft | 478 kts | 258° |
| 2026-05-04 03:04 | 47.49212 | 66.29296 | 36186 ft | 478 kts | 258° |
| 2026-05-04 03:04 | 47.47609 | 66.19755 | 36188 ft | 478 kts | 258° |
| 2026-05-04 03:05 | 47.46000 | 66.10228 | 36190 ft | 478 kts | 258° |
| 2026-05-04 03:05 | 47.44379 | 66.00686 | 36175 ft | 478 kts | 258° |
| 2026-05-04 03:06 | 47.42755 | 65.91159 | 36181 ft | 478 kts | 258° |
| 2026-05-04 03:06 | 47.41133 | 65.81685 | 36183 ft | 478 kts | 258° |
| 2026-05-04 03:07 | 47.39533 | 65.72090 | 36182 ft | 479 kts | 258° |
| 2026-05-04 03:07 | 47.37961 | 65.62602 | 36181 ft | 479 kts | 258° |
| 2026-05-04 03:08 | 47.36367 | 65.53059 | 36183 ft | 479 kts | 258° |
| 2026-05-04 03:08 | 47.34763 | 65.43527 | 36182 ft | 479 kts | 258° |
| 2026-05-04 03:09 | 47.33148 | 65.33989 | 36181 ft | 479 kts | 258° |
| 2026-05-04 03:09 | 47.31527 | 65.24464 | 36183 ft | 479 kts | 258° |
| 2026-05-04 03:10 | 47.29896 | 65.14927 | 36182 ft | 479 kts | 257° |
| 2026-05-04 03:10 | 47.28272 | 65.05468 | 36182 ft | 479 kts | 257° |
| 2026-05-04 03:11 | 47.26628 | 64.95968 | 36181 ft | 479 kts | 257° |
| 2026-05-04 03:11 | 47.24981 | 64.86467 | 36181 ft | 479 kts | 257° |
| 2026-05-04 03:12 | 47.23333 | 64.76970 | 36184 ft | 478 kts | 257° |
| 2026-05-04 03:12 | 47.21678 | 64.67478 | 36176 ft | 478 kts | 257° |
| 2026-05-04 03:13 | 47.20021 | 64.58015 | 36177 ft | 477 kts | 257° |
| 2026-05-04 03:13 | 47.18360 | 64.48616 | 36177 ft | 477 kts | 257° |
| 2026-05-04 03:14 | 47.16682 | 64.39192 | 36166 ft | 476 kts | 257° |
| 2026-05-04 03:14 | 47.15001 | 64.29769 | 36172 ft | 476 kts | 257° |
| 2026-05-04 03:15 | 47.13318 | 64.20371 | 36171 ft | 475 kts | 257° |
| 2026-05-04 03:15 | 47.11628 | 64.10980 | 36169 ft | 475 kts | 257° |
| 2026-05-04 03:16 | 47.09935 | 64.01616 | 36171 ft | 475 kts | 257° |
| 2026-05-04 03:16 | 47.08242 | 63.92307 | 36164 ft | 475 kts | 256° |
| 2026-05-04 03:17 | 47.06534 | 63.82959 | 36165 ft | 475 kts | 256° |
| 2026-05-04 03:17 | 47.04816 | 63.73602 | 36164 ft | 475 kts | 256° |
| 2026-05-04 03:18 | 47.03091 | 63.64258 | 36150 ft | 475 kts | 256° |
| 2026-05-04 03:18 | 47.01359 | 63.54921 | 36158 ft | 475 kts | 256° |
| 2026-05-04 03:19 | 46.99617 | 63.45579 | 36153 ft | 475 kts | 256° |
| 2026-05-04 03:19 | 46.97866 | 63.36235 | 36152 ft | 474 kts | 256° |
| 2026-05-04 03:20 | 46.96123 | 63.26979 | 36140 ft | 474 kts | 256° |
| 2026-05-04 03:20 | 46.94361 | 63.17664 | 36144 ft | 474 kts | 256° |
| 2026-05-04 03:21 | 46.92590 | 63.08352 | 36143 ft | 474 kts | 256° |
| 2026-05-04 03:21 | 46.90814 | 62.99057 | 36143 ft | 474 kts | 256° |
| 2026-05-04 03:22 | 46.89040 | 62.89817 | 36149 ft | 474 kts | 255° |
| 2026-05-04 03:22 | 46.87249 | 62.80528 | 36139 ft | 474 kts | 255° |
| 2026-05-04 03:23 | 46.85452 | 62.71252 | 36135 ft | 474 kts | 255° |
| 2026-05-04 03:23 | 46.83649 | 62.61977 | 36136 ft | 474 kts | 255° |
| 2026-05-04 03:24 | 46.81837 | 62.52735 | 36134 ft | 473 kts | 255° |
| 2026-05-04 03:24 | 46.80011 | 62.43493 | 36133 ft | 473 kts | 254° |
| 2026-05-04 03:25 | 46.78177 | 62.34242 | 36129 ft | 474 kts | 254° |
| 2026-05-04 03:25 | 46.76343 | 62.25016 | 36132 ft | 474 kts | 254° |
| 2026-05-04 03:26 | 46.74502 | 62.15792 | 36129 ft | 474 kts | 254° |
| 2026-05-04 03:26 | 46.72665 | 62.06631 | 36118 ft | 474 kts | 254° |
| 2026-05-04 03:27 | 46.70807 | 61.97409 | 36132 ft | 474 kts | 254° |
| 2026-05-04 03:27 | 46.68940 | 61.88188 | 36126 ft | 475 kts | 254° |
| 2026-05-04 03:28 | 46.67063 | 61.78958 | 36127 ft | 475 kts | 254° |
| 2026-05-04 03:28 | 46.65179 | 61.69733 | 36119 ft | 476 kts | 253° |
| 2026-05-04 03:29 | 46.63284 | 61.60503 | 36117 ft | 476 kts | 253° |
| 2026-05-04 03:29 | 46.61379 | 61.51265 | 36117 ft | 476 kts | 253° |
| 2026-05-04 03:30 | 46.59466 | 61.42028 | 36117 ft | 476 kts | 253° |
| 2026-05-04 03:30 | 46.57558 | 61.32863 | 36108 ft | 477 kts | 253° |
| 2026-05-04 03:31 | 46.55628 | 61.23629 | 36120 ft | 477 kts | 253° |
| 2026-05-04 03:31 | 46.53693 | 61.14415 | 36109 ft | 477 kts | 253° |
| 2026-05-04 03:32 | 46.51749 | 61.05201 | 36106 ft | 477 kts | 253° |
| 2026-05-04 03:32 | 46.49795 | 60.95978 | 36113 ft | 477 kts | 253° |
| 2026-05-04 03:33 | 46.47845 | 60.86816 | 36113 ft | 478 kts | 253° |
| 2026-05-04 03:33 | 46.45874 | 60.77599 | 36103 ft | 478 kts | 253° |
| 2026-05-04 03:34 | 46.43898 | 60.68401 | 36098 ft | 477 kts | 253° |
| 2026-05-04 03:34 | 46.41915 | 60.59209 | 36095 ft | 477 kts | 253° |
| 2026-05-04 03:35 | 46.39937 | 60.50077 | 36099 ft | 477 kts | 252° |
| 2026-05-04 03:35 | 46.37944 | 60.40918 | 36098 ft | 477 kts | 252° |
| 2026-05-04 03:36 | 46.35940 | 60.31752 | 36097 ft | 476 kts | 252° |
| 2026-05-04 03:36 | 46.33935 | 60.22615 | 36102 ft | 476 kts | 252° |
| 2026-05-04 03:37 | 46.31923 | 60.13492 | 36091 ft | 476 kts | 252° |
| 2026-05-04 03:37 | 46.29905 | 60.04374 | 36097 ft | 476 kts | 252° |
| 2026-05-04 03:38 | 46.27894 | 59.95330 | 36089 ft | 476 kts | 252° |
| 2026-05-04 03:38 | 46.25863 | 59.86224 | 36088 ft | 476 kts | 252° |
| 2026-05-04 03:39 | 46.23824 | 59.77114 | 36084 ft | 476 kts | 252° |
| 2026-05-04 03:39 | 46.21773 | 59.68033 | 36085 ft | 475 kts | 252° |
| 2026-05-04 03:40 | 46.19699 | 59.58973 | 36078 ft | 475 kts | 252° |
| 2026-05-04 03:40 | 46.17618 | 59.49914 | 36077 ft | 475 kts | 252° |
| 2026-05-04 03:41 | 46.15533 | 59.40857 | 36076 ft | 475 kts | 252° |
| 2026-05-04 03:41 | 46.13446 | 59.31816 | 36086 ft | 475 kts | 251° |
| 2026-05-04 03:42 | 46.11353 | 59.22785 | 36065 ft | 475 kts | 251° |
| 2026-05-04 03:42 | 46.09267 | 59.13825 | 36062 ft | 475 kts | 251° |
| 2026-05-04 03:43 | 46.07160 | 59.04807 | 36073 ft | 475 kts | 251° |
| 2026-05-04 03:43 | 46.05042 | 58.95788 | 36070 ft | 475 kts | 251° |
| 2026-05-04 03:44 | 46.03279 | 58.88303 | 36064 ft | 475 kts | 251° |
| 2026-05-04 03:44 | 46.01150 | 58.79299 | 36049 ft | 475 kts | 251° |
| 2026-05-04 03:45 | 45.99015 | 58.70306 | 36063 ft | 475 kts | 251° |
| 2026-05-04 03:45 | 45.96870 | 58.61310 | 36062 ft | 475 kts | 251° |
| 2026-05-04 03:46 | 45.94733 | 58.52381 | 36058 ft | 475 kts | 251° |
| 2026-05-04 03:46 | 45.92574 | 58.43400 | 36055 ft | 476 kts | 251° |
| 2026-05-04 03:47 | 45.90405 | 58.34410 | 36048 ft | 476 kts | 251° |
| 2026-05-04 03:47 | 45.88231 | 58.25436 | 36050 ft | 476 kts | 251° |
| 2026-05-04 03:48 | 45.86061 | 58.16511 | 36049 ft | 476 kts | 250° |
| 2026-05-04 03:48 | 45.83873 | 58.07552 | 36043 ft | 476 kts | 250° |
| 2026-05-04 03:49 | 45.81678 | 57.98595 | 36039 ft | 476 kts | 250° |
| 2026-05-04 03:49 | 45.79478 | 57.89653 | 36034 ft | 476 kts | 250° |
| 2026-05-04 03:50 | 45.77271 | 57.80715 | 36036 ft | 476 kts | 250° |
| 2026-05-04 03:50 | 45.75072 | 57.71832 | 36030 ft | 475 kts | 250° |
| 2026-05-04 03:51 | 45.72851 | 57.62918 | 36031 ft | 475 kts | 250° |
| 2026-05-04 03:51 | 45.70615 | 57.54005 | 36025 ft | 475 kts | 250° |
| 2026-05-04 03:52 | 45.68380 | 57.45107 | 36027 ft | 475 kts | 250° |
| 2026-05-04 03:52 | 45.66138 | 57.36205 | 36023 ft | 475 kts | 249° |
| 2026-05-04 03:53 | 45.63892 | 57.27314 | 36021 ft | 475 kts | 249° |
| 2026-05-04 03:53 | 45.61657 | 57.18503 | 36021 ft | 475 kts | 249° |
| 2026-05-04 03:54 | 45.59401 | 57.09646 | 36013 ft | 474 kts | 249° |
| 2026-05-04 03:54 | 45.57141 | 57.00803 | 36013 ft | 474 kts | 249° |
| 2026-05-04 03:55 | 45.54871 | 56.91959 | 36009 ft | 474 kts | 249° |
| 2026-05-04 03:55 | 45.52596 | 56.83126 | 36001 ft | 474 kts | 249° |
| 2026-05-04 03:56 | 45.50306 | 56.74272 | 36006 ft | 475 kts | 249° |
| 2026-05-04 03:56 | 45.48030 | 56.65501 | 36008 ft | 475 kts | 249° |
| 2026-05-04 03:57 | 45.45728 | 56.56663 | 35994 ft | 475 kts | 249° |
| 2026-05-04 03:57 | 45.43422 | 56.47847 | 35987 ft | 475 kts | 249° |
| 2026-05-04 03:58 | 45.39950 | 56.34632 | 35994 ft | 475 kts | 248° |
| 2026-05-04 03:58 | 45.37641 | 56.25883 | 35988 ft | 475 kts | 248° |
| 2026-05-04 03:59 | 45.35313 | 56.17096 | 35992 ft | 475 kts | 248° |
| 2026-05-04 03:59 | 45.32972 | 56.08293 | 35990 ft | 475 kts | 248° |
| 2026-05-04 04:00 | 45.30626 | 55.99501 | 35987 ft | 475 kts | 248° |
| 2026-05-04 04:00 | 45.28275 | 55.90725 | 35989 ft | 476 kts | 248° |
| 2026-05-04 04:01 | 45.25916 | 55.81953 | 35983 ft | 476 kts | 248° |
| 2026-05-04 04:01 | 45.23550 | 55.73183 | 35978 ft | 476 kts | 248° |
| 2026-05-04 04:02 | 45.21193 | 55.64480 | 35985 ft | 475 kts | 248° |
| 2026-05-04 04:02 | 45.18813 | 55.55722 | 35975 ft | 476 kts | 248° |
| 2026-05-04 04:03 | 45.16427 | 55.46972 | 35970 ft | 476 kts | 248° |
| 2026-05-04 04:03 | 45.14036 | 55.38228 | 35970 ft | 476 kts | 248° |
| 2026-05-04 04:04 | 45.11641 | 55.29497 | 35970 ft | 476 kts | 248° |
| 2026-05-04 04:04 | 45.08938 | 55.20963 | 35959 ft | 475 kts | 238° |
| 2026-05-04 04:05 | 45.04983 | 55.13494 | 35968 ft | 475 kts | 227° |
| 2026-05-04 04:05 | 45.00175 | 55.07152 | 35966 ft | 475 kts | 222° |
| 2026-05-04 04:06 | 44.95252 | 55.00912 | 35962 ft | 475 kts | 222° |
| 2026-05-04 04:06 | 44.90356 | 54.94634 | 35965 ft | 475 kts | 223° |
| 2026-05-04 04:07 | 44.85478 | 54.88341 | 35960 ft | 475 kts | 223° |
| 2026-05-04 04:07 | 44.80603 | 54.82061 | 35965 ft | 475 kts | 223° |
| 2026-05-04 04:08 | 44.75722 | 54.75792 | 35962 ft | 474 kts | 223° |
| 2026-05-04 04:08 | 44.70841 | 54.69536 | 35960 ft | 474 kts | 222° |
| 2026-05-04 04:09 | 44.66156 | 54.63120 | 35961 ft | 473 kts | 228° |
| 2026-05-04 04:09 | 44.62206 | 54.55738 | 35974 ft | 473 kts | 235° |
| 2026-05-04 04:10 | 44.58459 | 54.48124 | 35967 ft | 473 kts | 235° |
| 2026-05-04 04:10 | 44.54693 | 54.40542 | 35967 ft | 473 kts | 234° |
| 2026-05-04 04:11 | 44.50938 | 54.33033 | 35964 ft | 473 kts | 234° |
| 2026-05-04 04:11 | 44.47147 | 54.25479 | 35952 ft | 474 kts | 234° |
| 2026-05-04 04:12 | 44.43355 | 54.17944 | 35964 ft | 473 kts | 234° |
| 2026-05-04 04:12 | 44.39556 | 54.10413 | 35964 ft | 473 kts | 234° |
| 2026-05-04 04:13 | 44.35754 | 54.02893 | 35971 ft | 473 kts | 234° |
| 2026-05-04 04:13 | 44.31945 | 53.95379 | 35965 ft | 473 kts | 234° |
| 2026-05-04 04:14 | 44.28133 | 53.87879 | 35963 ft | 473 kts | 234° |
| 2026-05-04 04:14 | 44.24345 | 53.80446 | 35959 ft | 473 kts | 234° |
| 2026-05-04 04:15 | 44.20529 | 53.72976 | 35959 ft | 472 kts | 234° |
| 2026-05-04 04:15 | 44.16712 | 53.65524 | 35958 ft | 472 kts | 234° |
| 2026-05-04 04:16 | 44.12890 | 53.58081 | 35959 ft | 472 kts | 234° |
| 2026-05-04 04:16 | 44.09062 | 53.50644 | 35963 ft | 472 kts | 234° |
| 2026-05-04 04:17 | 44.05235 | 53.43228 | 35955 ft | 472 kts | 234° |
| 2026-05-04 04:17 | 44.01407 | 53.35828 | 35958 ft | 472 kts | 234° |
| 2026-05-04 04:18 | 43.97574 | 53.28436 | 35955 ft | 471 kts | 234° |
| 2026-05-04 04:18 | 43.93741 | 53.21059 | 35955 ft | 471 kts | 234° |
| 2026-05-04 04:19 | 43.89925 | 53.13732 | 35961 ft | 472 kts | 234° |
| 2026-05-04 04:19 | 43.86071 | 53.06362 | 35957 ft | 472 kts | 234° |
| 2026-05-04 04:20 | 43.82213 | 52.99000 | 35950 ft | 472 kts | 234° |
| 2026-05-04 04:20 | 43.78347 | 52.91629 | 35953 ft | 473 kts | 234° |
| 2026-05-04 04:21 | 43.74478 | 52.84264 | 35955 ft | 473 kts | 234° |
| 2026-05-04 04:21 | 43.70603 | 52.76906 | 35954 ft | 473 kts | 234° |
| 2026-05-04 04:22 | 43.66724 | 52.69558 | 35953 ft | 473 kts | 234° |
| 2026-05-04 04:22 | 43.62830 | 52.62239 | 35952 ft | 473 kts | 234° |
| 2026-05-04 04:23 | 43.58941 | 52.54990 | 35950 ft | 473 kts | 234° |
| 2026-05-04 04:23 | 43.55003 | 52.47658 | 35948 ft | 473 kts | 234° |
| 2026-05-04 04:24 | 43.51116 | 52.40429 | 35949 ft | 472 kts | 234° |
| 2026-05-04 04:24 | 43.47197 | 52.33153 | 35943 ft | 473 kts | 234° |
| 2026-05-04 04:25 | 43.43271 | 52.25880 | 35952 ft | 472 kts | 234° |
| 2026-05-04 04:25 | 43.39348 | 52.18634 | 35952 ft | 472 kts | 234° |
| 2026-05-04 04:26 | 43.35424 | 52.11402 | 35956 ft | 472 kts | 234° |
| 2026-05-04 04:26 | 43.31495 | 52.04179 | 35953 ft | 471 kts | 234° |
| 2026-05-04 04:27 | 43.27565 | 51.96973 | 35964 ft | 471 kts | 234° |
| 2026-05-04 04:27 | 43.23635 | 51.89784 | 35953 ft | 471 kts | 234° |
| 2026-05-04 04:28 | 43.19719 | 51.82637 | 35953 ft | 470 kts | 234° |
| 2026-05-04 04:28 | 43.15781 | 51.75469 | 35958 ft | 470 kts | 234° |
| 2026-05-04 04:29 | 43.11843 | 51.68316 | 35957 ft | 470 kts | 233° |
| 2026-05-04 04:29 | 43.07898 | 51.61169 | 35955 ft | 470 kts | 233° |
| 2026-05-04 04:30 | 43.03951 | 51.54035 | 35963 ft | 470 kts | 233° |
| 2026-05-04 04:30 | 42.99997 | 51.46906 | 35954 ft | 470 kts | 233° |
| 2026-05-04 04:31 | 42.96059 | 51.39823 | 35957 ft | 471 kts | 233° |
| 2026-05-04 04:31 | 42.92083 | 51.32688 | 35958 ft | 472 kts | 233° |
| 2026-05-04 04:32 | 42.88096 | 51.25551 | 35966 ft | 473 kts | 233° |
| 2026-05-04 04:32 | 42.84124 | 51.18456 | 35952 ft | 473 kts | 233° |
| 2026-05-04 04:33 | 42.80124 | 51.11330 | 35968 ft | 473 kts | 233° |
| 2026-05-04 04:33 | 42.76791 | 51.05405 | 35970 ft | 474 kts | 233° |
| 2026-05-04 04:34 | 42.72779 | 50.98287 | 35969 ft | 474 kts | 233° |
| 2026-05-04 04:34 | 42.68757 | 50.91170 | 35970 ft | 474 kts | 233° |
| 2026-05-04 04:35 | 42.64733 | 50.84065 | 35973 ft | 474 kts | 233° |
| 2026-05-04 04:35 | 42.60698 | 50.76957 | 35973 ft | 474 kts | 233° |
| 2026-05-04 04:36 | 42.56666 | 50.69872 | 35970 ft | 474 kts | 233° |
| 2026-05-04 04:36 | 42.52633 | 50.62799 | 35975 ft | 474 kts | 233° |
| 2026-05-04 04:37 | 42.44587 | 50.48732 | 35974 ft | 473 kts | 233° |
| 2026-05-04 04:38 | 42.40633 | 50.41607 | 35971 ft | 472 kts | 235° |
| 2026-05-04 04:38 | 42.36841 | 50.34356 | 35978 ft | 472 kts | 235° |
| 2026-05-04 04:39 | 42.33047 | 50.27098 | 35973 ft | 472 kts | 235° |
| 2026-05-04 04:39 | 42.29252 | 50.19918 | 35973 ft | 472 kts | 234° |
| 2026-05-04 04:40 | 42.25418 | 50.12710 | 35966 ft | 472 kts | 234° |
| 2026-05-04 04:40 | 42.21570 | 50.05500 | 35968 ft | 473 kts | 234° |
| 2026-05-04 04:41 | 42.17725 | 49.98307 | 35970 ft | 473 kts | 234° |
| 2026-05-04 04:41 | 42.13868 | 49.91110 | 35973 ft | 474 kts | 234° |
| 2026-05-04 04:42 | 42.10024 | 49.83952 | 35971 ft | 474 kts | 234° |
| 2026-05-04 04:42 | 42.06147 | 49.76750 | 35969 ft | 475 kts | 233° |
| 2026-05-04 04:43 | 42.02258 | 49.69542 | 35970 ft | 475 kts | 233° |
| 2026-05-04 04:43 | 41.98367 | 49.62349 | 35970 ft | 476 kts | 233° |
| 2026-05-04 04:44 | 41.94472 | 49.55163 | 35964 ft | 474 kts | 233° |
| 2026-05-04 04:44 | 41.90607 | 49.48049 | 35965 ft | 473 kts | 233° |
| 2026-05-04 04:45 | 41.86727 | 49.40921 | 35965 ft | 472 kts | 233° |
| 2026-05-04 04:47 | 41.73680 | 49.15773 | 35968 ft | 469 kts | 236° |
| 2026-05-04 04:47 | 41.70086 | 49.08484 | 35976 ft | 468 kts | 236° |
| 2026-05-04 04:48 | 41.66478 | 49.01250 | 35967 ft | 466 kts | 236° |
| 2026-05-04 04:49 | 41.57466 | 48.83280 | 35973 ft | 465 kts | 236° |
| 2026-05-04 04:49 | 41.53882 | 48.76157 | 35977 ft | 465 kts | 236° |
| 2026-05-04 04:50 | 41.50164 | 48.69087 | 35983 ft | 465 kts | 232° |
| 2026-05-04 04:50 | 41.46210 | 48.62230 | 35983 ft | 465 kts | 232° |
| 2026-05-04 04:51 | 41.42338 | 48.55396 | 35970 ft | 465 kts | 233° |
| 2026-05-04 04:51 | 41.38518 | 48.48443 | 35956 ft | 464 kts | 233° |
| 2026-05-04 04:52 | 41.34742 | 48.41469 | 35957 ft | 464 kts | 233° |
| 2026-05-04 04:52 | 41.30954 | 48.34507 | 35950 ft | 464 kts | 233° |
| 2026-05-04 04:53 | 41.27169 | 48.27586 | 35953 ft | 464 kts | 233° |
| 2026-05-04 04:53 | 41.23365 | 48.20647 | 35934 ft | 463 kts | 233° |
| 2026-05-04 04:54 | 41.19550 | 48.13700 | 35958 ft | 468 kts | 233° |
| 2026-05-04 04:54 | 41.15707 | 48.06714 | 35959 ft | 469 kts | 233° |
| 2026-05-04 04:55 | 41.12490 | 47.99254 | 35981 ft | 471 kts | 252° |
| 2026-05-04 04:55 | 41.11882 | 47.95034 | 35991 ft | 475 kts | 263° |
| 2026-05-04 04:55 | 41.11893 | 47.90638 | 35974 ft | 480 kts | 276° |
| 2026-05-04 04:56 | 41.13284 | 47.81975 | 36005 ft | 482 kts | 279° |
| 2026-05-04 04:56 | 41.14743 | 47.73273 | 35993 ft | 484 kts | 279° |
| 2026-05-04 04:57 | 41.16146 | 47.64510 | 35988 ft | 486 kts | 278° |
| 2026-05-04 04:57 | 41.17512 | 47.55709 | 36013 ft | 487 kts | 278° |
| 2026-05-04 04:58 | 41.18866 | 47.46903 | 35997 ft | 487 kts | 278° |
| 2026-05-04 04:58 | 41.20216 | 47.38100 | 36051 ft | 485 kts | 277° |
| 2026-05-04 04:59 | 41.21558 | 47.29334 | 36011 ft | 482 kts | 277° |
| 2026-05-04 04:59 | 41.22871 | 47.20688 | 36014 ft | 479 kts | 277° |
| 2026-05-04 05:00 | 41.24180 | 47.12015 | 36016 ft | 478 kts | 276° |
| 2026-05-04 05:01 | 41.26126 | 46.99047 | 36020 ft | 476 kts | 276° |
| 2026-05-04 05:01 | 41.27415 | 46.90394 | 36016 ft | 478 kts | 276° |
| 2026-05-04 05:02 | 41.28708 | 46.81696 | 36010 ft | 480 kts | 276° |
| 2026-05-04 05:02 | 41.29993 | 46.72963 | 36023 ft | 482 kts | 276° |
| 2026-05-04 05:03 | 41.31215 | 46.64252 | 36007 ft | 483 kts | 275° |
| 2026-05-04 05:04 | 41.33645 | 46.46636 | 36005 ft | 485 kts | 275° |
| 2026-05-04 05:04 | 41.34863 | 46.37791 | 36004 ft | 486 kts | 275° |
| 2026-05-04 05:06 | 41.39682 | 46.02319 | 35996 ft | 488 kts | 275° |
| 2026-05-04 05:07 | 41.40873 | 45.93422 | 35989 ft | 488 kts | 275° |
| 2026-05-04 05:07 | 41.42056 | 45.84525 | 36010 ft | 488 kts | 275° |
| 2026-05-04 05:09 | 41.47310 | 45.44378 | 35995 ft | 491 kts | 275° |
| 2026-05-04 05:10 | 41.48433 | 45.35390 | 35964 ft | 490 kts | 272° |
| 2026-05-04 05:10 | 41.49213 | 45.26375 | 35954 ft | 488 kts | 271° |
| 2026-05-04 05:11 | 41.49906 | 45.17369 | 35964 ft | 488 kts | 271° |
| 2026-05-04 05:11 | 41.50613 | 45.08363 | 35953 ft | 488 kts | 271° |
| 2026-05-04 05:12 | 41.51334 | 44.99363 | 35968 ft | 488 kts | 271° |
| 2026-05-04 05:12 | 41.52056 | 44.90347 | 35972 ft | 488 kts | 271° |
| 2026-05-04 05:13 | 41.52764 | 44.81385 | 35971 ft | 488 kts | 271° |
| 2026-05-04 05:13 | 41.53469 | 44.72368 | 35966 ft | 488 kts | 271° |
| 2026-05-04 05:14 | 41.54167 | 44.63349 | 35971 ft | 488 kts | 271° |
| 2026-05-04 05:14 | 41.54857 | 44.54327 | 35966 ft | 488 kts | 271° |
| 2026-05-04 05:15 | 41.55541 | 44.45317 | 35966 ft | 488 kts | 271° |
| 2026-05-04 05:15 | 41.56220 | 44.36304 | 35955 ft | 488 kts | 271° |
| 2026-05-04 05:16 | 41.56870 | 44.27352 | 35954 ft | 487 kts | 269° |
| 2026-05-04 05:16 | 41.56751 | 44.18371 | 35940 ft | 481 kts | 258° |
| 2026-05-04 05:17 | 41.55750 | 44.09559 | 35928 ft | 479 kts | 256° |
| 2026-05-04 05:17 | 41.54725 | 44.00758 | 35899 ft | 479 kts | 257° |
| 2026-05-04 05:18 | 41.53726 | 43.91958 | 35903 ft | 479 kts | 257° |
| 2026-05-04 05:18 | 41.52736 | 43.83155 | 35886 ft | 480 kts | 257° |
| 2026-05-04 05:19 | 41.51738 | 43.74327 | 35849 ft | 481 kts | 257° |
| 2026-05-04 05:19 | 41.50737 | 43.65543 | 35861 ft | 483 kts | 257° |
| 2026-05-04 05:20 | 41.49718 | 43.56669 | 35856 ft | 484 kts | 257° |
| 2026-05-04 05:20 | 41.48689 | 43.47777 | 35843 ft | 485 kts | 257° |
| 2026-05-04 05:21 | 41.47654 | 43.38884 | 35825 ft | 485 kts | 257° |
| 2026-05-04 05:21 | 41.46614 | 43.30002 | 35826 ft | 484 kts | 257° |
| 2026-05-04 05:22 | 41.45747 | 43.22647 | 35806 ft | 483 kts | 257° |
| 2026-05-04 05:22 | 41.44697 | 43.13804 | 35811 ft | 482 kts | 257° |
| 2026-05-04 05:23 | 41.43646 | 43.04973 | 35829 ft | 482 kts | 256° |
| 2026-05-04 05:23 | 41.42584 | 42.96144 | 35813 ft | 483 kts | 256° |
| 2026-05-04 05:24 | 41.41506 | 42.87286 | 35817 ft | 484 kts | 256° |
| 2026-05-04 05:24 | 41.40427 | 42.78436 | 35799 ft | 484 kts | 256° |
| 2026-05-04 05:25 | 41.39353 | 42.69642 | 35821 ft | 484 kts | 256° |
| 2026-05-04 05:25 | 41.38263 | 42.60779 | 35801 ft | 484 kts | 256° |
| 2026-05-04 05:26 | 41.37174 | 42.51984 | 35801 ft | 484 kts | 256° |
| 2026-05-04 05:26 | 41.36070 | 42.43132 | 35818 ft | 485 kts | 256° |
| 2026-05-04 05:28 | 41.31582 | 42.07660 | 35767 ft | 487 kts | 256° |
| 2026-05-04 05:29 | 41.30448 | 41.98821 | 35780 ft | 488 kts | 256° |
| 2026-05-04 05:29 | 41.29286 | 41.89928 | 35769 ft | 488 kts | 256° |
| 2026-05-04 05:31 | 41.24548 | 41.54575 | 35793 ft | 484 kts | 255° |
| 2026-05-04 05:32 | 41.23352 | 41.45757 | 35789 ft | 485 kts | 255° |
| 2026-05-04 05:33 | 41.21542 | 41.32495 | 35789 ft | 487 kts | 255° |
| 2026-05-04 05:33 | 41.20331 | 41.23697 | 35785 ft | 487 kts | 256° |
| 2026-05-04 05:34 | 41.19103 | 41.14829 | 35787 ft | 488 kts | 255° |
| 2026-05-04 05:34 | 41.17869 | 41.05956 | 35780 ft | 489 kts | 255° |
| 2026-05-04 05:35 | 41.16623 | 40.97064 | 35782 ft | 490 kts | 255° |
| 2026-05-04 05:35 | 41.15368 | 40.88164 | 35779 ft | 490 kts | 255° |
| 2026-05-04 05:36 | 41.14109 | 40.79267 | 35779 ft | 490 kts | 255° |
| 2026-05-04 05:36 | 41.12841 | 40.70365 | 35775 ft | 491 kts | 255° |
| 2026-05-04 05:37 | 41.11572 | 40.61518 | 35786 ft | 492 kts | 255° |
| 2026-05-04 05:37 | 41.10288 | 40.52609 | 35786 ft | 492 kts | 255° |
| 2026-05-04 05:38 | 41.08349 | 40.39249 | 35804 ft | 492 kts | 255° |
| 2026-05-04 05:38 | 41.07047 | 40.30337 | 35801 ft | 492 kts | 255° |
| 2026-05-04 05:39 | 41.05084 | 40.17002 | 35811 ft | 491 kts | 255° |
| 2026-05-04 05:40 | 41.03108 | 40.03682 | 35811 ft | 492 kts | 255° |
| 2026-05-04 05:40 | 41.01788 | 39.94827 | 35813 ft | 493 kts | 254° |
| 2026-05-04 05:41 | 41.00460 | 39.85916 | 35800 ft | 494 kts | 256° |
| 2026-05-04 05:41 | 40.99936 | 39.76779 | 35808 ft | 501 kts | 266° |
| 2026-05-04 05:42 | 41.00541 | 39.67547 | 35812 ft | 505 kts | 273° |
| 2026-05-04 05:42 | 41.01489 | 39.58305 | 35814 ft | 507 kts | 273° |
| 2026-05-04 05:43 | 41.02403 | 39.49093 | 35826 ft | 508 kts | 272° |
| 2026-05-04 05:45 | 41.05861 | 39.11909 | 35821 ft | 509 kts | 272° |
| 2026-05-04 05:47 | 41.09297 | 38.74630 | 35836 ft | 510 kts | 272° |
| 2026-05-04 05:47 | 41.10115 | 38.65335 | 35834 ft | 510 kts | 272° |
| 2026-05-04 05:48 | 41.10883 | 38.55972 | 35824 ft | 511 kts | 272° |
| 2026-05-04 05:48 | 41.11672 | 38.46605 | 35835 ft | 512 kts | 272° |
| 2026-05-04 05:49 | 41.12464 | 38.37212 | 35819 ft | 513 kts | 272° |
| 2026-05-04 05:49 | 41.13248 | 38.27795 | 35812 ft | 514 kts | 272° |
| 2026-05-04 05:51 | 41.16283 | 37.89853 | 35817 ft | 521 kts | 272° |
| 2026-05-04 05:52 | 41.17081 | 37.80271 | 35826 ft | 523 kts | 273° |
| 2026-05-04 05:52 | 41.17933 | 37.70659 | 35832 ft | 525 kts | 273° |
| 2026-05-04 05:54 | 41.20702 | 37.32097 | 35815 ft | 526 kts | 272° |
| 2026-05-04 05:55 | 41.21405 | 37.22428 | 35818 ft | 526 kts | 272° |
| 2026-05-04 05:55 | 41.22141 | 37.12756 | 35813 ft | 526 kts | 273° |
| 2026-05-04 05:56 | 41.22914 | 37.03084 | 35814 ft | 526 kts | 273° |
| 2026-05-04 05:56 | 41.23676 | 36.93404 | 35806 ft | 527 kts | 273° |
| 2026-05-04 05:57 | 41.24420 | 36.83749 | 35790 ft | 529 kts | 273° |
| 2026-05-04 05:57 | 41.25162 | 36.74004 | 35795 ft | 530 kts | 273° |
| 2026-05-04 05:58 | 41.25899 | 36.64241 | 35775 ft | 531 kts | 273° |
| 2026-05-04 05:58 | 41.26628 | 36.54470 | 35801 ft | 532 kts | 273° |
| 2026-05-04 05:59 | 41.27327 | 36.44664 | 35799 ft | 533 kts | 272° |
| 2026-05-04 05:59 | 41.28003 | 36.34913 | 35792 ft | 533 kts | 272° |
| 2026-05-04 06:00 | 41.28681 | 36.25084 | 35788 ft | 534 kts | 272° |
| 2026-05-04 06:00 | 41.29356 | 36.15224 | 35793 ft | 535 kts | 272° |
| 2026-05-04 06:01 | 41.30026 | 36.05344 | 35807 ft | 537 kts | 272° |
| 2026-05-04 06:03 | 41.32621 | 35.65792 | 35782 ft | 536 kts | 273° |
| 2026-05-04 06:05 | 41.35371 | 35.21365 | 35783 ft | 535 kts | 272° |
| 2026-05-04 06:06 | 41.35958 | 35.11495 | 35784 ft | 534 kts | 272° |
| 2026-05-04 06:06 | 41.36536 | 35.01622 | 35786 ft | 535 kts | 273° |
| 2026-05-04 06:07 | 41.37106 | 34.91754 | 35785 ft | 535 kts | 273° |
| 2026-05-04 06:07 | 41.37715 | 34.81886 | 35785 ft | 534 kts | 274° |
| 2026-05-04 06:08 | 41.38358 | 34.72081 | 35789 ft | 535 kts | 274° |
| 2026-05-04 06:08 | 41.38992 | 34.62201 | 35808 ft | 536 kts | 274° |
| 2026-05-04 06:09 | 41.39613 | 34.52297 | 35795 ft | 537 kts | 274° |
| 2026-05-04 06:11 | 41.41912 | 34.14271 | 35793 ft | 538 kts | 274° |
| 2026-05-04 06:13 | 41.44175 | 33.74434 | 35837 ft | 540 kts | 274° |
| 2026-05-04 06:14 | 41.46047 | 33.39556 | 35851 ft | 538 kts | 274° |
| 2026-05-04 06:15 | 41.46561 | 33.29590 | 35852 ft | 538 kts | 274° |
| 2026-05-04 06:15 | 41.47067 | 33.19640 | 35865 ft | 538 kts | 274° |
| 2026-05-04 06:16 | 41.47568 | 33.09698 | 35854 ft | 536 kts | 274° |
| 2026-05-04 06:16 | 41.48058 | 32.99769 | 35856 ft | 535 kts | 274° |
| 2026-05-04 06:17 | 41.48527 | 32.89938 | 35864 ft | 534 kts | 274° |
| 2026-05-04 06:17 | 41.48991 | 32.80047 | 35865 ft | 534 kts | 274° |
| 2026-05-04 06:18 | 41.49452 | 32.70150 | 35863 ft | 535 kts | 274° |
| 2026-05-04 06:20 | 41.51222 | 32.30455 | 35879 ft | 536 kts | 274° |
| 2026-05-04 06:21 | 41.52236 | 32.05761 | 35879 ft | 533 kts | 274° |
| 2026-05-04 06:22 | 41.52632 | 31.95870 | 35884 ft | 533 kts | 274° |
| 2026-05-04 06:25 | 41.55316 | 31.26740 | 35911 ft | 533 kts | 276° |
| 2026-05-04 06:26 | 41.56004 | 31.16877 | 35924 ft | 533 kts | 276° |
| 2026-05-04 06:26 | 41.56670 | 31.07063 | 35927 ft | 534 kts | 276° |
| 2026-05-04 06:27 | 41.58201 | 30.82266 | 35294 ft | 538 kts | 276° |
| 2026-05-04 06:28 | 41.58504 | 30.77282 | 34999 ft | 539 kts | 276° |
| 2026-05-04 06:28 | 41.58806 | 30.72277 | 34681 ft | 541 kts | 276° |
| 2026-05-04 06:28 | 41.59105 | 30.67258 | 34361 ft | 543 kts | 276° |
| 2026-05-04 06:28 | 41.59355 | 30.62223 | 34045 ft | 544 kts | 274° |
| 2026-05-04 06:29 | 41.59543 | 30.57155 | 33663 ft | 546 kts | 274° |
| 2026-05-04 06:29 | 41.59707 | 30.52086 | 33288 ft | 547 kts | 274° |
| 2026-05-04 06:29 | 41.59872 | 30.47006 | 32935 ft | 547 kts | 274° |
| 2026-05-04 06:29 | 41.60048 | 30.41928 | 32559 ft | 547 kts | 274° |
| 2026-05-04 06:30 | 41.60233 | 30.36861 | 32206 ft | 545 kts | 275° |
| 2026-05-04 06:30 | 41.60420 | 30.31813 | 31845 ft | 543 kts | 275° |
| 2026-05-04 06:30 | 41.60599 | 30.26786 | 31481 ft | 540 kts | 275° |
| 2026-05-04 06:30 | 41.60760 | 30.21789 | 31125 ft | 537 kts | 275° |
| 2026-05-04 06:31 | 41.60906 | 30.16810 | 30764 ft | 532 kts | 274° |
| 2026-05-04 06:31 | 41.61045 | 30.11911 | 30407 ft | 521 kts | 274° |
| 2026-05-04 06:31 | 41.61181 | 30.07128 | 30070 ft | 510 kts | 275° |
| 2026-05-04 06:31 | 41.61314 | 30.02465 | 29952 ft | 493 kts | 275° |
| 2026-05-04 06:32 | 41.61443 | 29.97970 | 29949 ft | 476 kts | 275° |
| 2026-05-04 06:33 | 41.61451 | 29.68069 | 25476 ft | 472 kts | 269° |
| 2026-05-04 06:34 | 41.61276 | 29.63675 | 24647 ft | 473 kts | 269° |
| 2026-05-04 06:34 | 41.60765 | 29.59340 | 23804 ft | 477 kts | 254° |
| 2026-05-04 06:34 | 41.59310 | 29.55341 | 22895 ft | 483 kts | 236° |
| 2026-05-04 06:34 | 41.57052 | 29.52011 | 21974 ft | 481 kts | 220° |
| 2026-05-04 06:35 | 41.54480 | 29.49283 | 21105 ft | 478 kts | 218° |
| 2026-05-04 06:36 | 41.36388 | 29.30522 | 16028 ft | 444 kts | 202° |
| 2026-05-04 06:37 | 41.33412 | 29.29525 | 15431 ft | 439 kts | 184° |
| 2026-05-04 06:37 | 41.30405 | 29.29501 | 14885 ft | 428 kts | 176° |
| 2026-05-04 06:37 | 41.27441 | 29.29606 | 14347 ft | 424 kts | 178° |
| 2026-05-04 06:37 | 41.24547 | 29.29579 | 13756 ft | 416 kts | 185° |
| 2026-05-04 06:38 | 41.21772 | 29.28639 | 13064 ft | 412 kts | 207° |
| 2026-05-04 06:38 | 41.19350 | 29.26664 | 12442 ft | 404 kts | 220° |
| 2026-05-04 06:40 | 41.03737 | 29.12341 | 9958 ft | 354 kts | 216° |
| 2026-05-04 06:40 | 41.01749 | 29.10543 | 9948 ft | 339 kts | 216° |
| 2026-05-04 06:40 | 40.99849 | 29.08822 | 9954 ft | 324 kts | 217° |
| 2026-05-04 06:40 | 40.98029 | 29.07176 | 9950 ft | 310 kts | 217° |
| 2026-05-04 06:41 | 40.96286 | 29.05603 | 9880 ft | 298 kts | 217° |
| 2026-05-04 06:41 | 40.94571 | 29.04057 | 9570 ft | 300 kts | 217° |
| 2026-05-04 06:41 | 40.92877 | 29.02438 | 9145 ft | 297 kts | 226° |
| 2026-05-04 06:41 | 40.91753 | 29.00257 | 8708 ft | 288 kts | 257° |
| 2026-05-04 06:42 | 40.91432 | 28.97676 | 8353 ft | 277 kts | 277° |
| 2026-05-04 06:42 | 40.91607 | 28.95195 | 7953 ft | 274 kts | 283° |
| 2026-05-04 06:42 | 40.91842 | 28.92689 | 7578 ft | 275 kts | 282° |
| 2026-05-04 06:44 | 40.95697 | 28.77440 | 5297 ft | 237 kts | 333° |
| 2026-05-04 06:44 | 40.97118 | 28.76376 | 4962 ft | 229 kts | 341° |
| 2026-05-04 06:44 | 40.98618 | 28.76096 | 4636 ft | 217 kts | 4° |
| 2026-05-04 06:45 | 41.00115 | 28.76144 | 4348 ft | 215 kts | 1° |
| 2026-05-04 06:45 | 41.01608 | 28.76127 | 4035 ft | 214 kts | 0° |
| 2026-05-04 06:45 | 41.03053 | 28.76100 | 3980 ft | 200 kts | 0° |
| 2026-05-04 06:45 | 41.04413 | 28.76075 | 3979 ft | 197 kts | 0° |
| 2026-05-04 06:46 | 41.05788 | 28.76051 | 3959 ft | 197 kts | 0° |
| 2026-05-04 06:46 | 41.07150 | 28.76025 | 3921 ft | 194 kts | 0° |
| 2026-05-04 06:46 | 41.08498 | 28.76001 | 3758 ft | 196 kts | 0° |
| 2026-05-04 06:46 | 41.09856 | 28.75975 | 3508 ft | 190 kts | 0° |
| 2026-05-04 06:48 | 41.17690 | 28.75829 | 2055 ft | 153 kts | 359° |
| 2026-05-04 06:48 | 41.18722 | 28.75809 | 1827 ft | 142 kts | 359° |
| 2026-05-04 06:49 | 41.19656 | 28.75792 | 1641 ft | 126 kts | 358° |
| 2026-05-04 06:50 | 41.25772 | 28.75677 | 431 ft | 122 kts | 355° |
| 2026-05-04 06:51 | 41.26629 | 28.75661 | 318 ft | 122 kts | 355° |
| 2026-05-04 06:51 | 41.27373 | 28.75651 | 301 ft | 82 kts | 359° |
| 2026-05-04 06:51 | 41.27760 | 28.75645 | 285 ft | 35 kts | 359° |
| 2026-05-04 06:51 | 41.28003 | 28.75609 | 269 ft | 35 kts | 338° |
| 2026-05-04 06:52 | 41.28156 | 28.75491 | 263 ft | 21 kts | 310° |
| 2026-05-04 06:52 | 41.28103 | 28.75357 | 265 ft | 21 kts | 184° |
| 2026-05-04 06:52 | 41.27961 | 28.75359 | 272 ft | 20 kts | 179° |
| 2026-05-04 06:52 | 41.27805 | 28.75361 | 282 ft | 27 kts | 179° |
| 2026-05-04 06:53 | 41.27596 | 28.75364 | 300 ft | 30 kts | 179° |
| 2026-05-04 06:53 | 41.27388 | 28.75366 | 305 ft | 30 kts | 179° |
| 2026-05-04 06:53 | 41.27179 | 28.75368 | 306 ft | 30 kts | 179° |
| 2026-05-04 06:53 | 41.26978 | 28.75371 | 310 ft | 23 kts | 179° |
| 2026-05-04 06:54 | 41.26889 | 28.75301 | 312 ft | 17 kts | 265° |
| 2026-05-04 06:54 | 41.26890 | 28.75143 | 317 ft | 17 kts | 270° |
| 2026-05-04 06:54 | 41.26887 | 28.74983 | 318 ft | 17 kts | 268° |
| 2026-05-04 06:54 | 41.26830 | 28.74908 | 318 ft | 14 kts | 178° |
| 2026-05-04 06:55 | 41.26789 | 28.74910 | 318 ft | 0 kts | 178° |